PWSweather.com
Personal Weather Stations
Station Observations
VAJNORY
Vajnory, BratislavaSK 83107

VajnoryBratislavaSK 83107

Lat: 48.208, Lon: 17.202

Elevation: 434

Station Type: MeteoPi by eMeteo.sk

https://emeteo.sk/sk/meteostanica/vajnory

Latest ConditionsUpdated 7:20:00 AM GMT+01:01 Thursday, Mar 21, 2019
Currently Today's Max Today's Min Today's Average
Temperature 33.3°F0.7°C 33.3°F0.7°C 27.1°F-2.7°C 29.3°F-1.5°C
Dew Point 26.0°F-3.3°C 26.0°F-3.3°C 24.0°F-4.4°C 24.8°F-4.0°C
Winds 0.7 mph SE1.1 kmh SE 5.1 mph -8.2 kmh - - 1.1 mph 1.8 kmh
Wind Gusts 1.0 mph1.6 kmh 7.7 mph12.4 kmh - -
Humidity 74% 89% 74% 84%
Pressure 30.56 in1034.9 mb 30.56 in1034.9 mb 30.52 in1033.5 mb -
Hour Temp Dew Point Humidity Winds Wind Gusts Pressure Precip Precip Rate Daily Precip Total
07:20 AM 33.3°F0.7°C 26.0°F-3.3°C 74% 0.7 mph SE1.1 kmh SE 1.0 mph1.6 kmh 30.56 in1034.9 mb 0.00 in0.0 mm 0.00 in0.0 mm 0.00 in0.0 mm
07:19 AM 32.9°F0.5°C 26.0°F-3.3°C 75% 1.1 mph SE1.8 kmh SE 1.9 mph3.1 kmh 30.56 in1034.9 mb 0.00 in0.0 mm 0.00 in0.0 mm 0.00 in0.0 mm
07:18 AM 32.5°F0.3°C 26.0°F-3.3°C 77% 1.1 mph SE1.8 kmh SE 1.8 mph2.9 kmh 30.56 in1034.9 mb 0.00 in0.0 mm 0.00 in0.0 mm 0.00 in0.0 mm
07:17 AM 32.4°F0.2°C 26.0°F-3.3°C 78% 3.1 mph SSE5.0 kmh SSE 4.8 mph7.7 kmh 30.56 in1034.9 mb 0.00 in0.0 mm 0.00 in0.0 mm 0.00 in0.0 mm
07:16 AM 32.2°F0.1°C 26.0°F-3.3°C 78% 3.4 mph SE5.5 kmh SE 5.3 mph8.5 kmh 30.56 in1034.9 mb 0.00 in0.0 mm 0.00 in0.0 mm 0.00 in0.0 mm
07:15 AM 32.2°F0.1°C 26.0°F-3.3°C 79% 3.3 mph SSE5.3 kmh SSE 5.1 mph8.2 kmh 30.56 in1034.9 mb 0.00 in0.0 mm 0.00 in0.0 mm 0.00 in0.0 mm
07:14 AM 31.6°F-0.2°C 26.0°F-3.3°C 80% 2.8 mph S4.5 kmh S 4.3 mph6.9 kmh 30.56 in1034.9 mb 0.00 in0.0 mm 0.00 in0.0 mm 0.00 in0.0 mm
07:13 AM 31.5°F-0.3°C 26.0°F-3.3°C 80% 2.8 mph SE4.5 kmh SE 4.3 mph6.9 kmh 30.56 in1034.9 mb 0.00 in0.0 mm 0.00 in0.0 mm 0.00 in0.0 mm
07:12 AM 31.3°F-0.4°C 26.0°F-3.3°C 81% 1.9 mph S3.1 kmh S 2.9 mph4.7 kmh 30.56 in1034.9 mb 0.00 in0.0 mm 0.00 in0.0 mm 0.00 in0.0 mm
07:11 AM 31.1°F-0.5°C 26.0°F-3.3°C 81% 2.1 mph S3.4 kmh S 3.2 mph5.1 kmh 30.56 in1034.9 mb 0.00 in0.0 mm 0.00 in0.0 mm 0.00 in0.0 mm
07:10 AM 31.1°F-0.5°C 26.0°F-3.3°C 81% 1.7 mph S2.7 kmh S 2.6 mph4.2 kmh 30.56 in1034.9 mb 0.00 in0.0 mm 0.00 in0.0 mm 0.00 in0.0 mm
07:09 AM 30.9°F-0.6°C 26.0°F-3.3°C 82% 2.0 mph S3.2 kmh S 3.0 mph4.8 kmh 30.56 in1034.9 mb 0.00 in0.0 mm 0.00 in0.0 mm 0.00 in0.0 mm
07:08 AM 30.7°F-0.7°C 26.0°F-3.3°C 82% 1.7 mph S2.7 kmh S 2.6 mph4.2 kmh 30.56 in1034.9 mb 0.00 in0.0 mm 0.00 in0.0 mm 0.00 in0.0 mm
07:07 AM 30.6°F-0.8°C 26.0°F-3.3°C 82% 1.1 mph SSW1.8 kmh SSW 1.7 mph2.7 kmh 30.56 in1034.9 mb 0.00 in0.0 mm 0.00 in0.0 mm 0.00 in0.0 mm
07:06 AM 30.4°F-0.9°C 26.0°F-3.3°C 82% 0.0 mph NW0.0 kmh NW -- 30.56 in1034.9 mb 0.00 in0.0 mm 0.00 in0.0 mm 0.00 in0.0 mm
07:05 AM 30.4°F-0.9°C 26.0°F-3.3°C 83% Calm Calm -- 30.56 in1034.9 mb 0.00 in0.0 mm 0.00 in0.0 mm 0.00 in0.0 mm
07:04 AM 30.4°F-0.9°C 26.0°F-3.3°C 83% Calm Calm -- 30.56 in1034.9 mb 0.00 in0.0 mm 0.00 in0.0 mm 0.00 in0.0 mm
07:03 AM 30.2°F-1.0°C 26.0°F-3.3°C 83% Calm Calm -- 30.56 in1034.9 mb 0.00 in0.0 mm 0.00 in0.0 mm 0.00 in0.0 mm
07:02 AM 30.0°F-1.1°C 26.0°F-3.3°C 84% Calm Calm -- 30.56 in1034.9 mb 0.00 in0.0 mm 0.00 in0.0 mm 0.00 in0.0 mm
07:01 AM 30.0°F-1.1°C 26.0°F-3.3°C 84% Calm Calm -- 30.56 in1034.9 mb 0.00 in0.0 mm 0.00 in0.0 mm 0.00 in0.0 mm
07:00 AM 29.8°F-1.2°C 26.0°F-3.3°C 85% Calm Calm -- 30.55 in1034.5 mb 0.00 in0.0 mm 0.00 in0.0 mm 0.00 in0.0 mm
06:59 AM 29.8°F-1.2°C 26.0°F-3.3°C 85% Calm Calm -- 30.56 in1034.9 mb 0.00 in0.0 mm 0.00 in0.0 mm 0.00 in0.0 mm
06:58 AM 29.7°F-1.3°C 26.0°F-3.3°C 85% Calm Calm -- 30.55 in1034.5 mb 0.00 in0.0 mm 0.00 in0.0 mm 0.00 in0.0 mm
06:57 AM 29.7°F-1.3°C 26.0°F-3.3°C 85% 0.0 mph NW0.0 kmh NW -- 30.55 in1034.5 mb 0.00 in0.0 mm 0.00 in0.0 mm 0.00 in0.0 mm
06:56 AM 29.5°F-1.4°C 26.0°F-3.3°C 85% 0.2 mph NW0.3 kmh NW 0.3 mph0.5 kmh 30.55 in1034.5 mb 0.00 in0.0 mm 0.00 in0.0 mm 0.00 in0.0 mm
06:55 AM 29.5°F-1.4°C 26.0°F-3.3°C 85% 1.2 mph NW1.9 kmh NW 2.0 mph3.2 kmh 30.55 in1034.5 mb 0.00 in0.0 mm 0.00 in0.0 mm 0.00 in0.0 mm
06:54 AM 29.5°F-1.4°C 26.0°F-3.3°C 86% 0.7 mph NW1.1 kmh NW 1.1 mph1.8 kmh 30.55 in1034.5 mb 0.00 in0.0 mm 0.00 in0.0 mm 0.00 in0.0 mm
06:53 AM 29.3°F-1.5°C 26.0°F-3.3°C 86% Calm Calm -- 30.55 in1034.5 mb 0.00 in0.0 mm 0.00 in0.0 mm 0.00 in0.0 mm
06:52 AM 29.1°F-1.6°C 25.0°F-3.9°C 86% Calm Calm -- 30.55 in1034.5 mb 0.00 in0.0 mm 0.00 in0.0 mm 0.00 in0.0 mm
06:51 AM 29.3°F-1.5°C 26.0°F-3.3°C 86% Calm Calm -- 30.55 in1034.5 mb 0.00 in0.0 mm 0.00 in0.0 mm 0.00 in0.0 mm
06:50 AM 29.1°F-1.6°C 25.0°F-3.9°C 86% 0.3 mph NW0.5 kmh NW 0.4 mph0.6 kmh 30.55 in1034.5 mb 0.00 in0.0 mm 0.00 in0.0 mm 0.00 in0.0 mm
06:49 AM 29.1°F-1.6°C 26.0°F-3.3°C 86% Calm Calm -- 30.55 in1034.5 mb 0.00 in0.0 mm 0.00 in0.0 mm 0.00 in0.0 mm
06:48 AM 28.9°F-1.7°C 25.0°F-3.9°C 86% Calm Calm -- 30.55 in1034.5 mb 0.00 in0.0 mm 0.00 in0.0 mm 0.00 in0.0 mm
06:47 AM 28.9°F-1.7°C 25.0°F-3.9°C 86% 0.1 mph NW0.2 kmh NW 0.1 mph0.2 kmh 30.55 in1034.5 mb 0.00 in0.0 mm 0.00 in0.0 mm 0.00 in0.0 mm
06:46 AM 28.8°F-1.8°C 25.0°F-3.9°C 86% 1.0 mph NW1.6 kmh NW 1.5 mph2.4 kmh 30.55 in1034.5 mb 0.00 in0.0 mm 0.00 in0.0 mm 0.00 in0.0 mm
06:45 AM 28.8°F-1.8°C 25.0°F-3.9°C 86% 0.9 mph ESE1.4 kmh ESE 1.4 mph2.3 kmh 30.55 in1034.5 mb 0.00 in0.0 mm 0.00 in0.0 mm 0.00 in0.0 mm
06:44 AM 28.8°F-1.8°C 25.0°F-3.9°C 86% Calm Calm -- 30.55 in1034.5 mb 0.00 in0.0 mm 0.00 in0.0 mm 0.00 in0.0 mm
06:43 AM 28.6°F-1.9°C 25.0°F-3.9°C 86% Calm Calm -- 30.55 in1034.5 mb 0.00 in0.0 mm 0.00 in0.0 mm 0.00 in0.0 mm
06:42 AM 28.6°F-1.9°C 25.0°F-3.9°C 87% Calm Calm -- 30.55 in1034.5 mb 0.00 in0.0 mm 0.00 in0.0 mm 0.00 in0.0 mm
06:41 AM 28.4°F-2.0°C 25.0°F-3.9°C 86% 0.0 mph NE0.0 kmh NE -- 30.55 in1034.5 mb 0.00 in0.0 mm 0.00 in0.0 mm 0.00 in0.0 mm
06:40 AM 28.4°F-2.0°C 25.0°F-3.9°C 86% Calm Calm -- 30.55 in1034.5 mb 0.00 in0.0 mm 0.00 in0.0 mm 0.00 in0.0 mm
06:39 AM 28.2°F-2.1°C 25.0°F-3.9°C 86% Calm Calm -- 30.55 in1034.5 mb 0.00 in0.0 mm 0.00 in0.0 mm 0.00 in0.0 mm
06:38 AM 28.2°F-2.1°C 25.0°F-3.9°C 86% Calm Calm -- 30.55 in1034.5 mb 0.00 in0.0 mm 0.00 in0.0 mm 0.00 in0.0 mm
06:37 AM 28.0°F-2.2°C 24.0°F-4.4°C 86% Calm Calm -- 30.55 in1034.5 mb 0.00 in0.0 mm 0.00 in0.0 mm 0.00 in0.0 mm
06:36 AM 28.2°F-2.1°C 25.0°F-3.9°C 86% Calm Calm -- 30.55 in1034.5 mb 0.00 in0.0 mm 0.00 in0.0 mm 0.00 in0.0 mm
06:35 AM 28.0°F-2.2°C 24.0°F-4.4°C 87% Calm Calm -- 30.55 in1034.5 mb 0.00 in0.0 mm 0.00 in0.0 mm 0.00 in0.0 mm
06:34 AM 28.0°F-2.2°C 25.0°F-3.9°C 87% Calm Calm -- 30.55 in1034.5 mb 0.00 in0.0 mm 0.00 in0.0 mm 0.00 in0.0 mm
06:33 AM 28.0°F-2.2°C 25.0°F-3.9°C 87% Calm Calm -- 30.55 in1034.5 mb 0.00 in0.0 mm 0.00 in0.0 mm 0.00 in0.0 mm
06:32 AM 28.0°F-2.2°C 25.0°F-3.9°C 87% Calm Calm -- 30.55 in1034.5 mb 0.00 in0.0 mm 0.00 in0.0 mm 0.00 in0.0 mm
06:31 AM 28.0°F-2.2°C 25.0°F-3.9°C 87% Calm Calm -- 30.55 in1034.5 mb 0.00 in0.0 mm 0.00 in0.0 mm 0.00 in0.0 mm
06:30 AM 28.0°F-2.2°C 25.0°F-3.9°C 87% Calm Calm -- 30.55 in1034.5 mb 0.00 in0.0 mm 0.00 in0.0 mm 0.00 in0.0 mm
06:29 AM 27.9°F-2.3°C 24.0°F-4.4°C 87% Calm Calm -- 30.55 in1034.5 mb 0.00 in0.0 mm 0.00 in0.0 mm 0.00 in0.0 mm
06:28 AM 27.9°F-2.3°C 24.0°F-4.4°C 87% Calm Calm -- 30.55 in1034.5 mb 0.00 in0.0 mm 0.00 in0.0 mm 0.00 in0.0 mm
06:27 AM 27.9°F-2.3°C 24.0°F-4.4°C 87% Calm Calm -- 30.55 in1034.5 mb 0.00 in0.0 mm 0.00 in0.0 mm 0.00 in0.0 mm
06:26 AM 27.7°F-2.4°C 24.0°F-4.4°C 87% Calm Calm -- 30.55 in1034.5 mb 0.00 in0.0 mm 0.00 in0.0 mm 0.00 in0.0 mm
06:25 AM 27.9°F-2.3°C 24.0°F-4.4°C 87% Calm Calm -- 30.55 in1034.5 mb 0.00 in0.0 mm 0.00 in0.0 mm 0.00 in0.0 mm
06:24 AM 27.7°F-2.4°C 24.0°F-4.4°C 87% Calm Calm -- 30.55 in1034.5 mb 0.00 in0.0 mm 0.00 in0.0 mm 0.00 in0.0 mm
06:23 AM 27.7°F-2.4°C 24.0°F-4.4°C 87% 0.5 mph NE0.8 kmh NE 0.7 mph1.1 kmh 30.55 in1034.5 mb 0.00 in0.0 mm 0.00 in0.0 mm 0.00 in0.0 mm
06:22 AM 27.9°F-2.3°C 24.0°F-4.4°C 87% 1.1 mph NE1.8 kmh NE 1.7 mph2.7 kmh 30.54 in1034.2 mb 0.00 in0.0 mm 0.00 in0.0 mm 0.00 in0.0 mm
06:21 AM 27.9°F-2.3°C 24.0°F-4.4°C 87% 1.5 mph NE2.4 kmh NE 2.3 mph3.7 kmh 30.55 in1034.5 mb 0.00 in0.0 mm 0.00 in0.0 mm 0.00 in0.0 mm
06:20 AM 27.9°F-2.3°C 24.0°F-4.4°C 87% 1.2 mph NE1.9 kmh NE 1.8 mph2.9 kmh 30.55 in1034.5 mb 0.00 in0.0 mm 0.00 in0.0 mm 0.00 in0.0 mm
06:19 AM 27.9°F-2.3°C 24.0°F-4.4°C 87% 1.1 mph NE1.8 kmh NE 1.8 mph2.9 kmh 30.54 in1034.2 mb 0.00 in0.0 mm 0.00 in0.0 mm 0.00 in0.0 mm
06:18 AM 28.0°F-2.2°C 25.0°F-3.9°C 87% 1.1 mph NE1.8 kmh NE 1.6 mph2.6 kmh 30.55 in1034.5 mb 0.00 in0.0 mm 0.00 in0.0 mm 0.00 in0.0 mm
06:17 AM 28.0°F-2.2°C 25.0°F-3.9°C 87% 1.5 mph NE2.4 kmh NE 2.4 mph3.9 kmh 30.54 in1034.2 mb 0.00 in0.0 mm 0.00 in0.0 mm 0.00 in0.0 mm
06:16 AM 28.0°F-2.2°C 25.0°F-3.9°C 87% 1.3 mph NE2.1 kmh NE 2.0 mph3.2 kmh 30.54 in1034.2 mb 0.00 in0.0 mm 0.00 in0.0 mm 0.00 in0.0 mm
06:15 AM 28.0°F-2.2°C 25.0°F-3.9°C 87% 1.2 mph NE1.9 kmh NE 1.9 mph3.1 kmh 30.55 in1034.5 mb 0.00 in0.0 mm 0.00 in0.0 mm 0.00 in0.0 mm
06:14 AM 28.0°F-2.2°C 25.0°F-3.9°C 87% 1.1 mph NE1.8 kmh NE 1.7 mph2.7 kmh 30.54 in1034.2 mb 0.00 in0.0 mm 0.00 in0.0 mm 0.00 in0.0 mm
06:13 AM 28.0°F-2.2°C 24.0°F-4.4°C 87% Calm Calm -- 30.54 in1034.2 mb 0.00 in0.0 mm 0.00 in0.0 mm 0.00 in0.0 mm
06:12 AM 28.0°F-2.2°C 25.0°F-3.9°C 87% Calm Calm -- 30.54 in1034.2 mb 0.00 in0.0 mm 0.00 in0.0 mm 0.00 in0.0 mm
06:11 AM 28.0°F-2.2°C 25.0°F-3.9°C 87% 0.4 mph NE0.6 kmh NE 0.5 mph0.8 kmh 30.54 in1034.2 mb 0.00 in0.0 mm 0.00 in0.0 mm 0.00 in0.0 mm
06:10 AM 28.0°F-2.2°C 25.0°F-3.9°C 87% 1.5 mph NE2.4 kmh NE 2.4 mph3.9 kmh 30.54 in1034.2 mb 0.00 in0.0 mm 0.00 in0.0 mm 0.00 in0.0 mm
06:09 AM 28.0°F-2.2°C 25.0°F-3.9°C 87% 2.5 mph NE4.0 kmh NE 3.9 mph6.3 kmh 30.54 in1034.2 mb 0.00 in0.0 mm 0.00 in0.0 mm 0.00 in0.0 mm
06:08 AM 27.9°F-2.3°C 24.0°F-4.4°C 87% 3.1 mph E5.0 kmh E 4.8 mph7.7 kmh 30.54 in1034.2 mb 0.00 in0.0 mm 0.00 in0.0 mm 0.00 in0.0 mm
06:07 AM 27.9°F-2.3°C 24.0°F-4.4°C 87% 3.0 mph E4.8 kmh E 4.7 mph7.6 kmh 30.54 in1034.2 mb 0.00 in0.0 mm 0.00 in0.0 mm 0.00 in0.0 mm
06:06 AM 27.9°F-2.3°C 24.0°F-4.4°C 87% 2.6 mph E4.2 kmh E 4.0 mph6.4 kmh 30.54 in1034.2 mb 0.00 in0.0 mm 0.00 in0.0 mm 0.00 in0.0 mm
06:05 AM 27.9°F-2.3°C 25.0°F-3.9°C 88% 3.0 mph E4.8 kmh E 4.6 mph7.4 kmh 30.54 in1034.2 mb 0.00 in0.0 mm 0.00 in0.0 mm 0.00 in0.0 mm
06:04 AM 27.7°F-2.4°C 24.0°F-4.4°C 88% 2.9 mph E4.7 kmh E 4.6 mph7.4 kmh 30.54 in1034.2 mb 0.00 in0.0 mm 0.00 in0.0 mm 0.00 in0.0 mm
06:03 AM 27.7°F-2.4°C 24.0°F-4.4°C 88% 1.9 mph NE3.1 kmh NE 3.0 mph4.8 kmh 30.54 in1034.2 mb 0.00 in0.0 mm 0.00 in0.0 mm 0.00 in0.0 mm
06:02 AM 27.5°F-2.5°C 24.0°F-4.4°C 88% 2.6 mph NE4.2 kmh NE 4.0 mph6.4 kmh 30.54 in1034.2 mb 0.00 in0.0 mm 0.00 in0.0 mm 0.00 in0.0 mm
06:01 AM 27.5°F-2.5°C 24.0°F-4.4°C 88% 2.0 mph NE3.2 kmh NE 3.2 mph5.1 kmh 30.54 in1034.2 mb 0.00 in0.0 mm 0.00 in0.0 mm 0.00 in0.0 mm
06:00 AM 27.5°F-2.5°C 24.0°F-4.4°C 88% 2.1 mph NE3.4 kmh NE 3.4 mph5.5 kmh 30.54 in1034.2 mb 0.00 in0.0 mm 0.00 in0.0 mm 0.00 in0.0 mm
05:59 AM 27.5°F-2.5°C 24.0°F-4.4°C 89% 3.0 mph NE4.8 kmh NE 4.5 mph7.2 kmh 30.54 in1034.2 mb 0.00 in0.0 mm 0.00 in0.0 mm 0.00 in0.0 mm
05:58 AM 27.3°F-2.6°C 24.0°F-4.4°C 88% 2.4 mph NW3.9 kmh NW 3.6 mph5.8 kmh 30.53 in1033.9 mb 0.00 in0.0 mm 0.00 in0.0 mm 0.00 in0.0 mm
05:57 AM 27.3°F-2.6°C 24.0°F-4.4°C 88% 2.2 mph NW3.5 kmh NW 3.5 mph5.6 kmh 30.53 in1033.9 mb 0.00 in0.0 mm 0.00 in0.0 mm 0.00 in0.0 mm
05:56 AM 27.3°F-2.6°C 24.0°F-4.4°C 88% 1.9 mph NW3.1 kmh NW 2.9 mph4.7 kmh 30.53 in1033.9 mb 0.00 in0.0 mm 0.00 in0.0 mm 0.00 in0.0 mm
05:55 AM 27.3°F-2.6°C 24.0°F-4.4°C 88% 1.8 mph NW2.9 kmh NW 2.7 mph4.3 kmh 30.53 in1033.9 mb 0.00 in0.0 mm 0.00 in0.0 mm 0.00 in0.0 mm
05:54 AM 27.3°F-2.6°C 24.0°F-4.4°C 89% 1.4 mph NW2.3 kmh NW 2.1 mph3.4 kmh 30.53 in1033.9 mb 0.00 in0.0 mm 0.00 in0.0 mm 0.00 in0.0 mm
05:53 AM 27.3°F-2.6°C 24.0°F-4.4°C 88% 0.2 mph NW0.3 kmh NW 0.4 mph0.6 kmh 30.53 in1033.9 mb 0.00 in0.0 mm 0.00 in0.0 mm 0.00 in0.0 mm
05:52 AM 27.3°F-2.6°C 24.0°F-4.4°C 88% Calm Calm -- 30.53 in1033.9 mb 0.00 in0.0 mm 0.00 in0.0 mm 0.00 in0.0 mm
05:51 AM 27.1°F-2.7°C 24.0°F-4.4°C 88% Calm Calm -- 30.53 in1033.9 mb 0.00 in0.0 mm 0.00 in0.0 mm 0.00 in0.0 mm
05:50 AM 27.1°F-2.7°C 24.0°F-4.4°C 88% Calm Calm -- 30.53 in1033.9 mb 0.00 in0.0 mm 0.00 in0.0 mm 0.00 in0.0 mm
05:49 AM 27.1°F-2.7°C 24.0°F-4.4°C 88% Calm Calm -- 30.53 in1033.9 mb 0.00 in0.0 mm 0.00 in0.0 mm 0.00 in0.0 mm
05:48 AM 27.3°F-2.6°C 24.0°F-4.4°C 88% Calm Calm -- 30.53 in1033.9 mb 0.00 in0.0 mm 0.00 in0.0 mm 0.00 in0.0 mm
05:47 AM 27.1°F-2.7°C 24.0°F-4.4°C 88% Calm Calm -- 30.53 in1033.9 mb 0.00 in0.0 mm 0.00 in0.0 mm 0.00 in0.0 mm
05:46 AM 27.3°F-2.6°C 24.0°F-4.4°C 88% Calm Calm -- 30.53 in1033.9 mb 0.00 in0.0 mm 0.00 in0.0 mm 0.00 in0.0 mm
05:45 AM 27.3°F-2.6°C 24.0°F-4.4°C 88% Calm Calm -- 30.53 in1033.9 mb 0.00 in0.0 mm 0.00 in0.0 mm 0.00 in0.0 mm
05:44 AM 27.3°F-2.6°C 24.0°F-4.4°C 88% Calm Calm -- 30.53 in1033.9 mb 0.00 in0.0 mm 0.00 in0.0 mm 0.00 in0.0 mm
05:43 AM 27.3°F-2.6°C 24.0°F-4.4°C 88% Calm Calm -- 30.53 in1033.9 mb 0.00 in0.0 mm 0.00 in0.0 mm 0.00 in0.0 mm
05:42 AM 27.5°F-2.5°C 24.0°F-4.4°C 88% 0.0 mph NW0.0 kmh NW -- 30.53 in1033.9 mb 0.00 in0.0 mm 0.00 in0.0 mm 0.00 in0.0 mm
05:41 AM 27.5°F-2.5°C 24.0°F-4.4°C 88% 0.2 mph NW0.3 kmh NW 0.3 mph0.5 kmh 30.53 in1033.9 mb 0.00 in0.0 mm 0.00 in0.0 mm 0.00 in0.0 mm
05:40 AM 27.5°F-2.5°C 24.0°F-4.4°C 88% 1.0 mph NW1.6 kmh NW 1.6 mph2.6 kmh 30.53 in1033.9 mb 0.00 in0.0 mm 0.00 in0.0 mm 0.00 in0.0 mm
05:39 AM 27.5°F-2.5°C 24.0°F-4.4°C 88% 1.2 mph NW1.9 kmh NW 1.8 mph2.9 kmh 30.53 in1033.9 mb 0.00 in0.0 mm 0.00 in0.0 mm 0.00 in0.0 mm
05:38 AM 27.5°F-2.5°C 24.0°F-4.4°C 88% 1.0 mph NW1.6 kmh NW 1.5 mph2.4 kmh 30.53 in1033.9 mb 0.00 in0.0 mm 0.00 in0.0 mm 0.00 in0.0 mm
05:37 AM 27.5°F-2.5°C 24.0°F-4.4°C 88% Calm Calm -- 30.53 in1033.9 mb 0.00 in0.0 mm 0.00 in0.0 mm 0.00 in0.0 mm
05:36 AM 27.5°F-2.5°C 24.0°F-4.4°C 88% Calm Calm -- 30.53 in1033.9 mb 0.00 in0.0 mm 0.00 in0.0 mm 0.00 in0.0 mm
05:35 AM 27.3°F-2.6°C 24.0°F-4.4°C 88% Calm Calm -- 30.53 in1033.9 mb 0.00 in0.0 mm 0.00 in0.0 mm 0.00 in0.0 mm
05:34 AM 27.3°F-2.6°C 24.0°F-4.4°C 88% Calm Calm -- 30.53 in1033.9 mb 0.00 in0.0 mm 0.00 in0.0 mm 0.00 in0.0 mm
05:33 AM 27.3°F-2.6°C 24.0°F-4.4°C 88% Calm Calm -- 30.52 in1033.5 mb 0.00 in0.0 mm 0.00 in0.0 mm 0.00 in0.0 mm
05:32 AM 27.5°F-2.5°C 24.0°F-4.4°C 88% Calm Calm -- 30.52 in1033.5 mb 0.00 in0.0 mm 0.00 in0.0 mm 0.00 in0.0 mm
05:31 AM 27.3°F-2.6°C 24.0°F-4.4°C 88% Calm Calm -- 30.52 in1033.5 mb 0.00 in0.0 mm 0.00 in0.0 mm 0.00 in0.0 mm
05:30 AM 27.3°F-2.6°C 24.0°F-4.4°C 88% Calm Calm -- 30.53 in1033.9 mb 0.00 in0.0 mm 0.00 in0.0 mm 0.00 in0.0 mm
05:29 AM 27.5°F-2.5°C 24.0°F-4.4°C 88% 0.0 mph NW0.0 kmh NW -- 30.52 in1033.5 mb 0.00 in0.0 mm 0.00 in0.0 mm 0.00 in0.0 mm
05:28 AM 27.5°F-2.5°C 24.0°F-4.4°C 88% Calm Calm -- 30.52 in1033.5 mb 0.00 in0.0 mm 0.00 in0.0 mm 0.00 in0.0 mm
05:27 AM 27.5°F-2.5°C 24.0°F-4.4°C 88% Calm Calm -- 30.52 in1033.5 mb 0.00 in0.0 mm 0.00 in0.0 mm 0.00 in0.0 mm
05:26 AM 27.5°F-2.5°C 24.0°F-4.4°C 88% Calm Calm -- 30.52 in1033.5 mb 0.00 in0.0 mm 0.00 in0.0 mm 0.00 in0.0 mm
05:25 AM 27.3°F-2.6°C 24.0°F-4.4°C 88% Calm Calm -- 30.52 in1033.5 mb 0.00 in0.0 mm 0.00 in0.0 mm 0.00 in0.0 mm
05:24 AM 27.3°F-2.6°C 24.0°F-4.4°C 87% Calm Calm -- 30.52 in1033.5 mb 0.00 in0.0 mm 0.00 in0.0 mm 0.00 in0.0 mm
05:23 AM 27.5°F-2.5°C 24.0°F-4.4°C 87% Calm Calm -- 30.52 in1033.5 mb 0.00 in0.0 mm 0.00 in0.0 mm 0.00 in0.0 mm
05:22 AM 27.5°F-2.5°C 24.0°F-4.4°C 87% Calm Calm -- 30.52 in1033.5 mb 0.00 in0.0 mm 0.00 in0.0 mm 0.00 in0.0 mm
05:21 AM 27.5°F-2.5°C 24.0°F-4.4°C 87% Calm Calm -- 30.52 in1033.5 mb 0.00 in0.0 mm 0.00 in0.0 mm 0.00 in0.0 mm
05:20 AM 27.5°F-2.5°C 24.0°F-4.4°C 87% Calm Calm -- 30.52 in1033.5 mb 0.00 in0.0 mm 0.00 in0.0 mm 0.00 in0.0 mm
05:19 AM 27.5°F-2.5°C 24.0°F-4.4°C 88% Calm Calm -- 30.52 in1033.5 mb 0.00 in0.0 mm 0.00 in0.0 mm 0.00 in0.0 mm
05:18 AM 27.7°F-2.4°C 24.0°F-4.4°C 88% 1.1 mph NW1.8 kmh NW 1.7 mph2.7 kmh 30.52 in1033.5 mb 0.00 in0.0 mm 0.00 in0.0 mm 0.00 in0.0 mm
05:17 AM 27.7°F-2.4°C 24.0°F-4.4°C 88% 0.2 mph NW0.3 kmh NW 0.3 mph0.5 kmh 30.53 in1033.9 mb 0.00 in0.0 mm 0.00 in0.0 mm 0.00 in0.0 mm
05:16 AM 27.7°F-2.4°C 24.0°F-4.4°C 88% Calm Calm -- 30.53 in1033.9 mb 0.00 in0.0 mm 0.00 in0.0 mm 0.00 in0.0 mm
05:15 AM 27.7°F-2.4°C 24.0°F-4.4°C 88% Calm Calm -- 30.53 in1033.9 mb 0.00 in0.0 mm 0.00 in0.0 mm 0.00 in0.0 mm
05:14 AM 27.7°F-2.4°C 24.0°F-4.4°C 88% Calm Calm -- 30.53 in1033.9 mb 0.00 in0.0 mm 0.00 in0.0 mm 0.00 in0.0 mm
05:13 AM 27.5°F-2.5°C 24.0°F-4.4°C 87% Calm Calm -- 30.52 in1033.5 mb 0.00 in0.0 mm 0.00 in0.0 mm 0.00 in0.0 mm
05:12 AM 27.7°F-2.4°C 24.0°F-4.4°C 87% Calm Calm -- 30.52 in1033.5 mb 0.00 in0.0 mm 0.00 in0.0 mm 0.00 in0.0 mm
05:11 AM 27.5°F-2.5°C 24.0°F-4.4°C 87% Calm Calm -- 30.52 in1033.5 mb 0.00 in0.0 mm 0.00 in0.0 mm 0.00 in0.0 mm
05:10 AM 27.7°F-2.4°C 24.0°F-4.4°C 87% Calm Calm -- 30.52 in1033.5 mb 0.00 in0.0 mm 0.00 in0.0 mm 0.00 in0.0 mm
05:09 AM 27.7°F-2.4°C 24.0°F-4.4°C 87% Calm Calm -- 30.52 in1033.5 mb 0.00 in0.0 mm 0.00 in0.0 mm 0.00 in0.0 mm
05:08 AM 27.7°F-2.4°C 24.0°F-4.4°C 87% Calm Calm -- 30.52 in1033.5 mb 0.00 in0.0 mm 0.00 in0.0 mm 0.00 in0.0 mm
05:07 AM 27.7°F-2.4°C 24.0°F-4.4°C 87% 0.0 mph NW0.0 kmh NW -- 30.52 in1033.5 mb 0.00 in0.0 mm 0.00 in0.0 mm 0.00 in0.0 mm
05:06 AM 27.7°F-2.4°C 24.0°F-4.4°C 87% 0.6 mph NW1.0 kmh NW 0.8 mph1.3 kmh 30.52 in1033.5 mb 0.00 in0.0 mm 0.00 in0.0 mm 0.00 in0.0 mm
05:05 AM 27.7°F-2.4°C 24.0°F-4.4°C 87% Calm Calm -- 30.52 in1033.5 mb 0.00 in0.0 mm 0.00 in0.0 mm 0.00 in0.0 mm
05:04 AM 27.7°F-2.4°C 24.0°F-4.4°C 87% Calm Calm -- 30.52 in1033.5 mb 0.00 in0.0 mm 0.00 in0.0 mm 0.00 in0.0 mm
05:03 AM 27.7°F-2.4°C 24.0°F-4.4°C 87% 1.2 mph NW1.9 kmh NW 1.8 mph2.9 kmh 30.52 in1033.5 mb 0.00 in0.0 mm 0.00 in0.0 mm 0.00 in0.0 mm
05:02 AM 27.9°F-2.3°C 24.0°F-4.4°C 87% 2.5 mph NW4.0 kmh NW 3.8 mph6.1 kmh 30.52 in1033.5 mb 0.00 in0.0 mm 0.00 in0.0 mm 0.00 in0.0 mm
05:01 AM 27.7°F-2.4°C 24.0°F-4.4°C 87% 2.3 mph S3.7 kmh S 3.6 mph5.8 kmh 30.52 in1033.5 mb 0.00 in0.0 mm 0.00 in0.0 mm 0.00 in0.0 mm
05:00 AM 27.9°F-2.3°C 24.0°F-4.4°C 87% 0.9 mph 1.4 kmh 1.3 mph2.1 kmh 30.52 in1033.5 mb 0.00 in0.0 mm 0.00 in0.0 mm 0.00 in0.0 mm
04:59 AM 27.9°F-2.3°C 24.0°F-4.4°C 87% Calm Calm -- 30.52 in1033.5 mb 0.00 in0.0 mm 0.00 in0.0 mm 0.00 in0.0 mm
04:58 AM 27.9°F-2.3°C 24.0°F-4.4°C 87% Calm Calm -- 30.52 in1033.5 mb 0.00 in0.0 mm 0.00 in0.0 mm 0.00 in0.0 mm
04:57 AM 28.0°F-2.2°C 24.0°F-4.4°C 87% 0.3 mph 0.5 kmh 0.4 mph0.6 kmh 30.52 in1033.5 mb 0.00 in0.0 mm 0.00 in0.0 mm 0.00 in0.0 mm
04:56 AM 28.0°F-2.2°C 25.0°F-3.9°C 87% 1.1 mph 1.8 kmh 1.6 mph2.6 kmh 30.52 in1033.5 mb 0.00 in0.0 mm 0.00 in0.0 mm 0.00 in0.0 mm
04:55 AM 28.0°F-2.2°C 25.0°F-3.9°C 87% Calm Calm -- 30.52 in1033.5 mb 0.00 in0.0 mm 0.00 in0.0 mm 0.00 in0.0 mm
04:54 AM 28.0°F-2.2°C 25.0°F-3.9°C 87% Calm Calm -- 30.52 in1033.5 mb 0.00 in0.0 mm 0.00 in0.0 mm 0.00 in0.0 mm
04:53 AM 28.0°F-2.2°C 25.0°F-3.9°C 87% Calm Calm -- 30.52 in1033.5 mb 0.00 in0.0 mm 0.00 in0.0 mm 0.00 in0.0 mm
04:52 AM 28.0°F-2.2°C 25.0°F-3.9°C 87% 0.8 mph 1.3 kmh 1.3 mph2.1 kmh 30.52 in1033.5 mb 0.00 in0.0 mm 0.00 in0.0 mm 0.00 in0.0 mm
04:51 AM 27.9°F-2.3°C 24.0°F-4.4°C 87% 0.6 mph 1.0 kmh 0.9 mph1.4 kmh 30.52 in1033.5 mb 0.00 in0.0 mm 0.00 in0.0 mm 0.00 in0.0 mm
04:50 AM 27.9°F-2.3°C 24.0°F-4.4°C 87% Calm Calm -- 30.52 in1033.5 mb 0.00 in0.0 mm 0.00 in0.0 mm 0.00 in0.0 mm
04:49 AM 27.7°F-2.4°C 24.0°F-4.4°C 87% Calm Calm -- 30.52 in1033.5 mb 0.00 in0.0 mm 0.00 in0.0 mm 0.00 in0.0 mm
04:48 AM 27.9°F-2.3°C 24.0°F-4.4°C 87% Calm Calm -- 30.52 in1033.5 mb 0.00 in0.0 mm 0.00 in0.0 mm 0.00 in0.0 mm
04:47 AM 27.7°F-2.4°C 24.0°F-4.4°C 87% Calm Calm -- 30.52 in1033.5 mb 0.00 in0.0 mm 0.00 in0.0 mm 0.00 in0.0 mm
04:46 AM 27.7°F-2.4°C 24.0°F-4.4°C 87% Calm Calm -- 30.52 in1033.5 mb 0.00 in0.0 mm 0.00 in0.0 mm 0.00 in0.0 mm
04:45 AM 27.7°F-2.4°C 24.0°F-4.4°C 87% Calm Calm -- 30.52 in1033.5 mb 0.00 in0.0 mm 0.00 in0.0 mm 0.00 in0.0 mm
04:44 AM 27.7°F-2.4°C 24.0°F-4.4°C 87% Calm Calm -- 30.52 in1033.5 mb 0.00 in0.0 mm 0.00 in0.0 mm 0.00 in0.0 mm
04:43 AM 27.7°F-2.4°C 24.0°F-4.4°C 88% Calm Calm -- 30.52 in1033.5 mb 0.00 in0.0 mm 0.00 in0.0 mm 0.00 in0.0 mm
04:42 AM 27.7°F-2.4°C 24.0°F-4.4°C 88% Calm Calm -- 30.52 in1033.5 mb 0.00 in0.0 mm 0.00 in0.0 mm 0.00 in0.0 mm
04:41 AM 27.7°F-2.4°C 24.0°F-4.4°C 88% Calm Calm -- 30.52 in1033.5 mb 0.00 in0.0 mm 0.00 in0.0 mm 0.00 in0.0 mm
04:40 AM 27.7°F-2.4°C 24.0°F-4.4°C 88% Calm Calm -- 30.52 in1033.5 mb 0.00 in0.0 mm 0.00 in0.0 mm 0.00 in0.0 mm
04:39 AM 27.9°F-2.3°C 25.0°F-3.9°C 88% Calm Calm -- 30.52 in1033.5 mb 0.00 in0.0 mm 0.00 in0.0 mm 0.00 in0.0 mm
04:38 AM 27.7°F-2.4°C 24.0°F-4.4°C 87% Calm Calm -- 30.53 in1033.9 mb 0.00 in0.0 mm 0.00 in0.0 mm 0.00 in0.0 mm
04:37 AM 27.9°F-2.3°C 24.0°F-4.4°C 87% Calm Calm -- 30.53 in1033.9 mb 0.00 in0.0 mm 0.00 in0.0 mm 0.00 in0.0 mm
04:36 AM 27.9°F-2.3°C 24.0°F-4.4°C 87% Calm Calm -- 30.52 in1033.5 mb 0.00 in0.0 mm 0.00 in0.0 mm 0.00 in0.0 mm
04:35 AM 27.9°F-2.3°C 24.0°F-4.4°C 86% Calm Calm -- 30.53 in1033.9 mb 0.00 in0.0 mm 0.00 in0.0 mm 0.00 in0.0 mm
04:34 AM 28.0°F-2.2°C 24.0°F-4.4°C 87% Calm Calm -- 30.53 in1033.9 mb 0.00 in0.0 mm 0.00 in0.0 mm 0.00 in0.0 mm
04:33 AM 28.0°F-2.2°C 25.0°F-3.9°C 87% Calm Calm -- 30.53 in1033.9 mb 0.00 in0.0 mm 0.00 in0.0 mm 0.00 in0.0 mm
04:32 AM 28.0°F-2.2°C 25.0°F-3.9°C 87% Calm Calm -- 30.53 in1033.9 mb 0.00 in0.0 mm 0.00 in0.0 mm 0.00 in0.0 mm
04:31 AM 28.0°F-2.2°C 25.0°F-3.9°C 87% Calm Calm -- 30.52 in1033.5 mb 0.00 in0.0 mm 0.00 in0.0 mm 0.00 in0.0 mm
04:30 AM 28.0°F-2.2°C 25.0°F-3.9°C 87% Calm Calm -- 30.53 in1033.9 mb 0.00 in0.0 mm 0.00 in0.0 mm 0.00 in0.0 mm
04:29 AM 27.9°F-2.3°C 24.0°F-4.4°C 87% Calm Calm -- 30.53 in1033.9 mb 0.00 in0.0 mm 0.00 in0.0 mm 0.00 in0.0 mm
04:28 AM 28.0°F-2.2°C 25.0°F-3.9°C 87% 0.3 mph 0.5 kmh 0.5 mph0.8 kmh 30.53 in1033.9 mb 0.00 in0.0 mm 0.00 in0.0 mm 0.00 in0.0 mm
04:27 AM 28.0°F-2.2°C 24.0°F-4.4°C 87% 1.4 mph 2.3 kmh 2.3 mph3.7 kmh 30.53 in1033.9 mb 0.00 in0.0 mm 0.00 in0.0 mm 0.00 in0.0 mm
04:26 AM 28.0°F-2.2°C 24.0°F-4.4°C 87% 0.5 mph 0.8 kmh 0.7 mph1.1 kmh 30.53 in1033.9 mb 0.00 in0.0 mm 0.00 in0.0 mm 0.00 in0.0 mm
04:25 AM 28.2°F-2.1°C 25.0°F-3.9°C 86% 1.2 mph 1.9 kmh 1.7 mph2.7 kmh 30.53 in1033.9 mb 0.00 in0.0 mm 0.00 in0.0 mm 0.00 in0.0 mm
04:24 AM 28.2°F-2.1°C 24.0°F-4.4°C 86% Calm Calm -- 30.53 in1033.9 mb 0.00 in0.0 mm 0.00 in0.0 mm 0.00 in0.0 mm
04:23 AM 28.2°F-2.1°C 25.0°F-3.9°C 86% 0.2 mph 0.3 kmh 0.3 mph0.5 kmh 30.53 in1033.9 mb 0.00 in0.0 mm 0.00 in0.0 mm 0.00 in0.0 mm
04:22 AM 28.2°F-2.1°C 25.0°F-3.9°C 86% 1.1 mph 1.8 kmh 1.7 mph2.7 kmh 30.53 in1033.9 mb 0.00 in0.0 mm 0.00 in0.0 mm 0.00 in0.0 mm
04:21 AM 28.4°F-2.0°C 25.0°F-3.9°C 87% 1.4 mph 2.3 kmh 2.2 mph3.5 kmh 30.53 in1033.9 mb 0.00 in0.0 mm 0.00 in0.0 mm 0.00 in0.0 mm
04:20 AM 28.2°F-2.1°C 25.0°F-3.9°C 87% 2.1 mph 3.4 kmh 3.3 mph5.3 kmh 30.53 in1033.9 mb 0.00 in0.0 mm 0.00 in0.0 mm 0.00 in0.0 mm
04:19 AM 28.4°F-2.0°C 25.0°F-3.9°C 87% 1.9 mph 3.1 kmh 3.0 mph4.8 kmh 30.52 in1033.5 mb 0.00 in0.0 mm 0.00 in0.0 mm 0.00 in0.0 mm
04:18 AM 28.4°F-2.0°C 25.0°F-3.9°C 86% 0.1 mph 0.2 kmh 0.1 mph0.2 kmh 30.52 in1033.5 mb 0.00 in0.0 mm 0.00 in0.0 mm 0.00 in0.0 mm
04:17 AM 28.4°F-2.0°C 25.0°F-3.9°C 86% 0.1 mph 0.2 kmh 0.1 mph0.2 kmh 30.53 in1033.9 mb 0.00 in0.0 mm 0.00 in0.0 mm 0.00 in0.0 mm
04:16 AM 28.4°F-2.0°C 25.0°F-3.9°C 86% 1.1 mph 1.8 kmh 1.7 mph2.7 kmh 30.53 in1033.9 mb 0.00 in0.0 mm 0.00 in0.0 mm 0.00 in0.0 mm
04:15 AM 28.6°F-1.9°C 25.0°F-3.9°C 87% 1.7 mph 2.7 kmh 2.6 mph4.2 kmh 30.53 in1033.9 mb 0.00 in0.0 mm 0.00 in0.0 mm 0.00 in0.0 mm
04:14 AM 28.6°F-1.9°C 25.0°F-3.9°C 87% 1.0 mph 1.6 kmh 1.5 mph2.4 kmh 30.53 in1033.9 mb 0.00 in0.0 mm 0.00 in0.0 mm 0.00 in0.0 mm
04:13 AM 28.6°F-1.9°C 25.0°F-3.9°C 87% Calm Calm -- 30.53 in1033.9 mb 0.00 in0.0 mm 0.00 in0.0 mm 0.00 in0.0 mm
04:12 AM 28.6°F-1.9°C 25.0°F-3.9°C 87% Calm Calm -- 30.53 in1033.9 mb 0.00 in0.0 mm 0.00 in0.0 mm 0.00 in0.0 mm
04:11 AM 28.6°F-1.9°C 25.0°F-3.9°C 86% 0.7 mph 1.1 kmh 1.0 mph1.6 kmh 30.53 in1033.9 mb 0.00 in0.0 mm 0.00 in0.0 mm 0.00 in0.0 mm
04:10 AM 28.6°F-1.9°C 25.0°F-3.9°C 87% 1.5 mph 2.4 kmh 2.3 mph3.7 kmh 30.53 in1033.9 mb 0.00 in0.0 mm 0.00 in0.0 mm 0.00 in0.0 mm
04:09 AM 28.6°F-1.9°C 25.0°F-3.9°C 87% 0.6 mph 1.0 kmh 1.0 mph1.6 kmh 30.53 in1033.9 mb 0.00 in0.0 mm 0.00 in0.0 mm 0.00 in0.0 mm
04:08 AM 28.4°F-2.0°C 25.0°F-3.9°C 87% Calm Calm -- 30.53 in1033.9 mb 0.00 in0.0 mm 0.00 in0.0 mm 0.00 in0.0 mm
04:07 AM 28.4°F-2.0°C 25.0°F-3.9°C 87% Calm Calm -- 30.53 in1033.9 mb 0.00 in0.0 mm 0.00 in0.0 mm 0.00 in0.0 mm
04:06 AM 28.6°F-1.9°C 25.0°F-3.9°C 87% Calm Calm -- 30.53 in1033.9 mb 0.00 in0.0 mm 0.00 in0.0 mm 0.00 in0.0 mm
04:05 AM 28.6°F-1.9°C 25.0°F-3.9°C 87% Calm Calm -- 30.53 in1033.9 mb 0.00 in0.0 mm 0.00 in0.0 mm 0.00 in0.0 mm
04:04 AM 28.6°F-1.9°C 25.0°F-3.9°C 86% 0.1 mph 0.2 kmh 0.1 mph0.2 kmh 30.53 in1033.9 mb 0.00 in0.0 mm 0.00 in0.0 mm 0.00 in0.0 mm
04:03 AM 28.6°F-1.9°C 25.0°F-3.9°C 86% 1.1 mph 1.8 kmh 1.7 mph2.7 kmh 30.53 in1033.9 mb 0.00 in0.0 mm 0.00 in0.0 mm 0.00 in0.0 mm
04:02 AM 28.6°F-1.9°C 25.0°F-3.9°C 86% 1.8 mph 2.9 kmh 2.8 mph4.5 kmh 30.53 in1033.9 mb 0.00 in0.0 mm 0.00 in0.0 mm 0.00 in0.0 mm
04:01 AM 28.6°F-1.9°C 25.0°F-3.9°C 86% 1.4 mph 2.3 kmh 2.1 mph3.4 kmh 30.53 in1033.9 mb 0.00 in0.0 mm 0.00 in0.0 mm 0.00 in0.0 mm
04:00 AM 28.6°F-1.9°C 25.0°F-3.9°C 87% 2.4 mph 3.9 kmh 3.7 mph6.0 kmh 30.53 in1033.9 mb 0.00 in0.0 mm 0.00 in0.0 mm 0.00 in0.0 mm
03:59 AM 28.6°F-1.9°C 25.0°F-3.9°C 87% 2.0 mph 3.2 kmh 3.0 mph4.8 kmh 30.53 in1033.9 mb 0.00 in0.0 mm 0.00 in0.0 mm 0.00 in0.0 mm
03:58 AM 28.8°F-1.8°C 25.0°F-3.9°C 86% 1.2 mph 1.9 kmh 2.0 mph3.2 kmh 30.53 in1033.9 mb 0.00 in0.0 mm 0.00 in0.0 mm 0.00 in0.0 mm
03:57 AM 28.8°F-1.8°C 25.0°F-3.9°C 86% 0.8 mph 1.3 kmh 1.1 mph1.8 kmh 30.53 in1033.9 mb 0.00 in0.0 mm 0.00 in0.0 mm 0.00 in0.0 mm
03:56 AM 28.8°F-1.8°C 25.0°F-3.9°C 87% 0.9 mph 1.4 kmh 1.3 mph2.1 kmh 30.53 in1033.9 mb 0.00 in0.0 mm 0.00 in0.0 mm 0.00 in0.0 mm
03:55 AM 28.8°F-1.8°C 25.0°F-3.9°C 87% 2.3 mph 3.7 kmh 3.5 mph5.6 kmh 30.53 in1033.9 mb 0.00 in0.0 mm 0.00 in0.0 mm 0.00 in0.0 mm
03:54 AM 28.6°F-1.9°C 25.0°F-3.9°C 87% 2.7 mph 4.3 kmh 4.2 mph6.8 kmh 30.53 in1033.9 mb 0.00 in0.0 mm 0.00 in0.0 mm 0.00 in0.0 mm
03:53 AM 28.2°F-2.1°C 25.0°F-3.9°C 87% 3.0 mph 4.8 kmh 4.5 mph7.2 kmh 30.53 in1033.9 mb 0.00 in0.0 mm 0.00 in0.0 mm 0.00 in0.0 mm
03:52 AM 28.2°F-2.1°C 25.0°F-3.9°C 88% 0.8 mph 1.3 kmh 1.3 mph2.1 kmh 30.53 in1033.9 mb 0.00 in0.0 mm 0.00 in0.0 mm 0.00 in0.0 mm
03:51 AM 28.0°F-2.2°C 25.0°F-3.9°C 88% 1.3 mph NE2.1 kmh NE 1.9 mph3.1 kmh 30.52 in1033.5 mb 0.00 in0.0 mm 0.00 in0.0 mm 0.00 in0.0 mm
03:50 AM 28.0°F-2.2°C 25.0°F-3.9°C 87% 1.9 mph W3.1 kmh W 2.9 mph4.7 kmh 30.52 in1033.5 mb 0.00 in0.0 mm 0.00 in0.0 mm 0.00 in0.0 mm
03:49 AM 28.0°F-2.2°C 25.0°F-3.9°C 88% Calm Calm -- 30.52 in1033.5 mb 0.00 in0.0 mm 0.00 in0.0 mm 0.00 in0.0 mm
03:48 AM 28.0°F-2.2°C 25.0°F-3.9°C 88% 0.5 mph S0.8 kmh S 0.8 mph1.3 kmh 30.52 in1033.5 mb 0.00 in0.0 mm 0.00 in0.0 mm 0.00 in0.0 mm
03:47 AM 28.0°F-2.2°C 25.0°F-3.9°C 87% 2.3 mph S3.7 kmh S 3.5 mph5.6 kmh 30.52 in1033.5 mb 0.00 in0.0 mm 0.00 in0.0 mm 0.00 in0.0 mm
03:46 AM 28.0°F-2.2°C 25.0°F-3.9°C 87% 2.4 mph S3.9 kmh S 3.7 mph6.0 kmh 30.52 in1033.5 mb 0.00 in0.0 mm 0.00 in0.0 mm 0.00 in0.0 mm
03:45 AM 28.0°F-2.2°C 25.0°F-3.9°C 87% 2.0 mph S3.2 kmh S 3.0 mph4.8 kmh 30.52 in1033.5 mb 0.00 in0.0 mm 0.00 in0.0 mm 0.00 in0.0 mm
03:44 AM 28.0°F-2.2°C 25.0°F-3.9°C 87% 0.5 mph S0.8 kmh S 0.7 mph1.1 kmh 30.52 in1033.5 mb 0.00 in0.0 mm 0.00 in0.0 mm 0.00 in0.0 mm
03:43 AM 28.0°F-2.2°C 25.0°F-3.9°C 87% 0.4 mph S0.6 kmh S 0.5 mph0.8 kmh 30.52 in1033.5 mb 0.00 in0.0 mm 0.00 in0.0 mm 0.00 in0.0 mm
03:42 AM 28.0°F-2.2°C 25.0°F-3.9°C 87% 1.8 mph S2.9 kmh S 2.9 mph4.7 kmh 30.52 in1033.5 mb 0.00 in0.0 mm 0.00 in0.0 mm 0.00 in0.0 mm
03:41 AM 28.0°F-2.2°C 25.0°F-3.9°C 87% 1.3 mph S2.1 kmh S 2.1 mph3.4 kmh 30.52 in1033.5 mb 0.00 in0.0 mm 0.00 in0.0 mm 0.00 in0.0 mm
03:40 AM 28.2°F-2.1°C 25.0°F-3.9°C 87% Calm Calm -- 30.52 in1033.5 mb 0.00 in0.0 mm 0.00 in0.0 mm 0.00 in0.0 mm
03:39 AM 28.2°F-2.1°C 25.0°F-3.9°C 87% 0.1 mph W0.2 kmh W 0.2 mph0.3 kmh 30.52 in1033.5 mb 0.00 in0.0 mm 0.00 in0.0 mm 0.00 in0.0 mm
03:38 AM 28.2°F-2.1°C 25.0°F-3.9°C 87% 0.8 mph NW1.3 kmh NW 1.2 mph1.9 kmh 30.52 in1033.5 mb 0.00 in0.0 mm 0.00 in0.0 mm 0.00 in0.0 mm
03:37 AM 28.2°F-2.1°C 25.0°F-3.9°C 87% 1.7 mph NW2.7 kmh NW 2.7 mph4.3 kmh 30.52 in1033.5 mb 0.00 in0.0 mm 0.00 in0.0 mm 0.00 in0.0 mm
03:36 AM 28.2°F-2.1°C 25.0°F-3.9°C 87% 2.0 mph NW3.2 kmh NW 3.0 mph4.8 kmh 30.52 in1033.5 mb 0.00 in0.0 mm 0.00 in0.0 mm 0.00 in0.0 mm
03:35 AM 28.2°F-2.1°C 25.0°F-3.9°C 87% 0.3 mph S0.5 kmh S 0.4 mph0.6 kmh 30.53 in1033.9 mb 0.00 in0.0 mm 0.00 in0.0 mm 0.00 in0.0 mm
03:34 AM 28.2°F-2.1°C 25.0°F-3.9°C 87% Calm Calm -- 30.52 in1033.5 mb 0.00 in0.0 mm 0.00 in0.0 mm 0.00 in0.0 mm
03:33 AM 28.2°F-2.1°C 25.0°F-3.9°C 87% Calm Calm -- 30.52 in1033.5 mb 0.00 in0.0 mm 0.00 in0.0 mm 0.00 in0.0 mm
03:32 AM 28.2°F-2.1°C 25.0°F-3.9°C 86% 0.6 mph S1.0 kmh S 0.9 mph1.4 kmh 30.52 in1033.5 mb 0.00 in0.0 mm 0.00 in0.0 mm 0.00 in0.0 mm
03:31 AM 28.2°F-2.1°C 25.0°F-3.9°C 87% 1.0 mph S1.6 kmh S 1.6 mph2.6 kmh 30.52 in1033.5 mb 0.00 in0.0 mm 0.00 in0.0 mm 0.00 in0.0 mm
03:30 AM 28.2°F-2.1°C 25.0°F-3.9°C 86% 1.3 mph S2.1 kmh S 2.0 mph3.2 kmh 30.52 in1033.5 mb 0.00 in0.0 mm 0.00 in0.0 mm 0.00 in0.0 mm
03:29 AM 28.4°F-2.0°C 25.0°F-3.9°C 86% 1.9 mph S3.1 kmh S 2.9 mph4.7 kmh 30.52 in1033.5 mb 0.00 in0.0 mm 0.00 in0.0 mm 0.00 in0.0 mm
03:28 AM 28.2°F-2.1°C 24.0°F-4.4°C 86% 2.5 mph S4.0 kmh S 3.8 mph6.1 kmh 30.52 in1033.5 mb 0.00 in0.0 mm 0.00 in0.0 mm 0.00 in0.0 mm
03:27 AM 28.4°F-2.0°C 25.0°F-3.9°C 86% 2.6 mph S4.2 kmh S 3.9 mph6.3 kmh 30.52 in1033.5 mb 0.00 in0.0 mm 0.00 in0.0 mm 0.00 in0.0 mm
03:26 AM 28.4°F-2.0°C 25.0°F-3.9°C 86% 2.1 mph S3.4 kmh S 3.2 mph5.1 kmh 30.52 in1033.5 mb 0.00 in0.0 mm 0.00 in0.0 mm 0.00 in0.0 mm
03:25 AM 28.4°F-2.0°C 24.0°F-4.4°C 85% 2.1 mph S3.4 kmh S 3.2 mph5.1 kmh 30.53 in1033.9 mb 0.00 in0.0 mm 0.00 in0.0 mm 0.00 in0.0 mm
03:24 AM 28.6°F-1.9°C 25.0°F-3.9°C 85% 2.3 mph S3.7 kmh S 3.5 mph5.6 kmh 30.52 in1033.5 mb 0.00 in0.0 mm 0.00 in0.0 mm 0.00 in0.0 mm
03:23 AM 28.6°F-1.9°C 25.0°F-3.9°C 85% 1.8 mph SW2.9 kmh SW 2.7 mph4.3 kmh 30.52 in1033.5 mb 0.00 in0.0 mm 0.00 in0.0 mm 0.00 in0.0 mm
03:22 AM 28.6°F-1.9°C 24.0°F-4.4°C 85% Calm Calm -- 30.52 in1033.5 mb 0.00 in0.0 mm 0.00 in0.0 mm 0.00 in0.0 mm
03:21 AM 28.8°F-1.8°C 25.0°F-3.9°C 85% Calm Calm -- 30.52 in1033.5 mb 0.00 in0.0 mm 0.00 in0.0 mm 0.00 in0.0 mm
03:20 AM 28.9°F-1.7°C 25.0°F-3.9°C 85% Calm Calm -- 30.52 in1033.5 mb 0.00 in0.0 mm 0.00 in0.0 mm 0.00 in0.0 mm
03:19 AM 28.9°F-1.7°C 25.0°F-3.9°C 84% Calm Calm -- 30.53 in1033.9 mb 0.00 in0.0 mm 0.00 in0.0 mm 0.00 in0.0 mm
03:18 AM 28.9°F-1.7°C 25.0°F-3.9°C 85% Calm Calm -- 30.53 in1033.9 mb 0.00 in0.0 mm 0.00 in0.0 mm 0.00 in0.0 mm
03:17 AM 28.9°F-1.7°C 25.0°F-3.9°C 85% 0.6 mph NW1.0 kmh NW 0.9 mph1.4 kmh 30.53 in1033.9 mb 0.00 in0.0 mm 0.00 in0.0 mm 0.00 in0.0 mm
03:16 AM 28.9°F-1.7°C 25.0°F-3.9°C 85% 0.2 mph S0.3 kmh S 0.2 mph0.3 kmh 30.53 in1033.9 mb 0.00 in0.0 mm 0.00 in0.0 mm 0.00 in0.0 mm
03:15 AM 29.1°F-1.6°C 25.0°F-3.9°C 85% 0.2 mph SE0.3 kmh SE 0.3 mph0.5 kmh 30.53 in1033.9 mb 0.00 in0.0 mm 0.00 in0.0 mm 0.00 in0.0 mm
03:14 AM 28.9°F-1.7°C 25.0°F-3.9°C 85% 2.0 mph SE3.2 kmh SE 3.1 mph5.0 kmh 30.53 in1033.9 mb 0.00 in0.0 mm 0.00 in0.0 mm 0.00 in0.0 mm
03:13 AM 28.9°F-1.7°C 25.0°F-3.9°C 85% 3.0 mph S4.8 kmh S 4.6 mph7.4 kmh 30.53 in1033.9 mb 0.00 in0.0 mm 0.00 in0.0 mm 0.00 in0.0 mm
03:12 AM 29.1°F-1.6°C 25.0°F-3.9°C 85% 4.0 mph S6.4 kmh S 6.1 mph9.8 kmh 30.53 in1033.9 mb 0.00 in0.0 mm 0.00 in0.0 mm 0.00 in0.0 mm
03:11 AM 29.1°F-1.6°C 25.0°F-3.9°C 85% 3.4 mph S5.5 kmh S 5.1 mph8.2 kmh 30.53 in1033.9 mb 0.00 in0.0 mm 0.00 in0.0 mm 0.00 in0.0 mm
03:10 AM 29.1°F-1.6°C 25.0°F-3.9°C 84% 2.2 mph S3.5 kmh S 3.4 mph5.5 kmh 30.53 in1033.9 mb 0.00 in0.0 mm 0.00 in0.0 mm 0.00 in0.0 mm
03:09 AM 29.3°F-1.5°C 25.0°F-3.9°C 84% 0.2 mph WNW0.3 kmh WNW 0.3 mph0.5 kmh 30.53 in1033.9 mb 0.00 in0.0 mm 0.00 in0.0 mm 0.00 in0.0 mm
03:08 AM 29.3°F-1.5°C 25.0°F-3.9°C 84% 1.0 mph NW1.6 kmh NW 1.6 mph2.6 kmh 30.53 in1033.9 mb 0.00 in0.0 mm 0.00 in0.0 mm 0.00 in0.0 mm
03:07 AM 29.3°F-1.5°C 25.0°F-3.9°C 85% 1.8 mph W2.9 kmh W 2.9 mph4.7 kmh 30.53 in1033.9 mb 0.00 in0.0 mm 0.00 in0.0 mm 0.00 in0.0 mm
03:06 AM 29.3°F-1.5°C 25.0°F-3.9°C 85% Calm Calm -- 30.53 in1033.9 mb 0.00 in0.0 mm 0.00 in0.0 mm 0.00 in0.0 mm
03:05 AM 29.3°F-1.5°C 25.0°F-3.9°C 85% 1.1 mph S1.8 kmh S 1.6 mph2.6 kmh 30.53 in1033.9 mb 0.00 in0.0 mm 0.00 in0.0 mm 0.00 in0.0 mm
03:04 AM 29.3°F-1.5°C 25.0°F-3.9°C 85% 1.5 mph S2.4 kmh S 2.3 mph3.7 kmh 30.53 in1033.9 mb 0.00 in0.0 mm 0.00 in0.0 mm 0.00 in0.0 mm
03:03 AM 29.3°F-1.5°C 26.0°F-3.3°C 86% 0.5 mph 0.8 kmh 0.7 mph1.1 kmh 30.53 in1033.9 mb 0.00 in0.0 mm 0.00 in0.0 mm 0.00 in0.0 mm
03:02 AM 29.3°F-1.5°C 26.0°F-3.3°C 86% 1.8 mph ENE2.9 kmh ENE 2.8 mph4.5 kmh 30.53 in1033.9 mb 0.00 in0.0 mm 0.00 in0.0 mm 0.00 in0.0 mm
03:01 AM 29.1°F-1.6°C 25.0°F-3.9°C 86% 3.6 mph SE5.8 kmh SE 5.7 mph9.2 kmh 30.53 in1033.9 mb 0.00 in0.0 mm 0.00 in0.0 mm 0.00 in0.0 mm
03:00 AM 29.1°F-1.6°C 25.0°F-3.9°C 86% 3.6 mph ESE5.8 kmh ESE 5.7 mph9.2 kmh 30.53 in1033.9 mb 0.00 in0.0 mm 0.00 in0.0 mm 0.00 in0.0 mm
02:59 AM 29.1°F-1.6°C 25.0°F-3.9°C 86% 2.3 mph 3.7 kmh 3.5 mph5.6 kmh 30.53 in1033.9 mb 0.00 in0.0 mm 0.00 in0.0 mm 0.00 in0.0 mm
02:58 AM 29.1°F-1.6°C 25.0°F-3.9°C 85% 4.0 mph NNE6.4 kmh NNE 6.4 mph10.3 kmh 30.53 in1033.9 mb 0.00 in0.0 mm 0.00 in0.0 mm 0.00 in0.0 mm
02:57 AM 29.1°F-1.6°C 25.0°F-3.9°C 85% 1.1 mph NE1.8 kmh NE 1.7 mph2.7 kmh 30.53 in1033.9 mb 0.00 in0.0 mm 0.00 in0.0 mm 0.00 in0.0 mm
02:56 AM 28.9°F-1.7°C 25.0°F-3.9°C 85% 0.1 mph 0.2 kmh 0.1 mph0.2 kmh 30.53 in1033.9 mb 0.00 in0.0 mm 0.00 in0.0 mm 0.00 in0.0 mm
02:55 AM 29.1°F-1.6°C 25.0°F-3.9°C 85% 3.0 mph NE4.8 kmh NE 4.6 mph7.4 kmh 30.53 in1033.9 mb 0.00 in0.0 mm 0.00 in0.0 mm 0.00 in0.0 mm
02:54 AM 29.1°F-1.6°C 25.0°F-3.9°C 85% 3.7 mph E6.0 kmh E 5.8 mph9.3 kmh 30.53 in1033.9 mb 0.00 in0.0 mm 0.00 in0.0 mm 0.00 in0.0 mm
02:53 AM 29.1°F-1.6°C 25.0°F-3.9°C 85% 3.7 mph NE6.0 kmh NE 5.8 mph9.3 kmh 30.53 in1033.9 mb 0.00 in0.0 mm 0.00 in0.0 mm 0.00 in0.0 mm
02:52 AM 29.1°F-1.6°C 25.0°F-3.9°C 85% 4.4 mph E7.1 kmh E 7.1 mph11.4 kmh 30.54 in1034.2 mb 0.00 in0.0 mm 0.00 in0.0 mm 0.00 in0.0 mm
02:51 AM 29.1°F-1.6°C 25.0°F-3.9°C 84% 1.4 mph SSE2.3 kmh SSE 2.1 mph3.4 kmh 30.53 in1033.9 mb 0.00 in0.0 mm 0.00 in0.0 mm 0.00 in0.0 mm
02:50 AM 29.3°F-1.5°C 25.0°F-3.9°C 84% 1.7 mph SE2.7 kmh SE 2.8 mph4.5 kmh 30.54 in1034.2 mb 0.00 in0.0 mm 0.00 in0.0 mm 0.00 in0.0 mm
02:49 AM 29.3°F-1.5°C 25.0°F-3.9°C 85% 2.4 mph SSW3.9 kmh SSW 3.7 mph6.0 kmh 30.53 in1033.9 mb 0.00 in0.0 mm 0.00 in0.0 mm 0.00 in0.0 mm
02:48 AM 29.1°F-1.6°C 25.0°F-3.9°C 85% 0.3 mph NE0.5 kmh NE 0.3 mph0.5 kmh 30.54 in1034.2 mb 0.00 in0.0 mm 0.00 in0.0 mm 0.00 in0.0 mm
02:47 AM 29.1°F-1.6°C 25.0°F-3.9°C 84% 1.3 mph NE2.1 kmh NE 2.0 mph3.2 kmh 30.53 in1033.9 mb 0.00 in0.0 mm 0.00 in0.0 mm 0.00 in0.0 mm
02:46 AM 29.1°F-1.6°C 25.0°F-3.9°C 84% 1.8 mph NE2.9 kmh NE 2.8 mph4.5 kmh 30.53 in1033.9 mb 0.00 in0.0 mm 0.00 in0.0 mm 0.00 in0.0 mm
02:45 AM 29.3°F-1.5°C 25.0°F-3.9°C 84% 2.8 mph E4.5 kmh E 4.4 mph7.1 kmh 30.53 in1033.9 mb 0.00 in0.0 mm 0.00 in0.0 mm 0.00 in0.0 mm
02:44 AM 29.3°F-1.5°C 25.0°F-3.9°C 84% 3.3 mph NE5.3 kmh NE 4.9 mph7.9 kmh 30.53 in1033.9 mb 0.00 in0.0 mm 0.00 in0.0 mm 0.00 in0.0 mm
02:43 AM 29.5°F-1.4°C 25.0°F-3.9°C 84% 2.3 mph NE3.7 kmh NE 3.5 mph5.6 kmh 30.53 in1033.9 mb 0.00 in0.0 mm 0.00 in0.0 mm 0.00 in0.0 mm
02:42 AM 29.7°F-1.3°C 25.0°F-3.9°C 84% 3.1 mph NNE5.0 kmh NNE 4.7 mph7.6 kmh 30.53 in1033.9 mb 0.00 in0.0 mm 0.00 in0.0 mm 0.00 in0.0 mm
02:41 AM 29.8°F-1.2°C 25.0°F-3.9°C 83% 2.7 mph NE4.3 kmh NE 4.2 mph6.8 kmh 30.53 in1033.9 mb 0.00 in0.0 mm 0.00 in0.0 mm 0.00 in0.0 mm
02:40 AM 29.8°F-1.2°C 25.0°F-3.9°C 82% Calm Calm -- 30.53 in1033.9 mb 0.00 in0.0 mm 0.00 in0.0 mm 0.00 in0.0 mm
02:39 AM 30.0°F-1.1°C 25.0°F-3.9°C 82% Calm Calm -- 30.53 in1033.9 mb 0.00 in0.0 mm 0.00 in0.0 mm 0.00 in0.0 mm
02:38 AM 30.0°F-1.1°C 25.0°F-3.9°C 82% Calm Calm -- 30.53 in1033.9 mb 0.00 in0.0 mm 0.00 in0.0 mm 0.00 in0.0 mm
02:37 AM 30.2°F-1.0°C 25.0°F-3.9°C 81% Calm Calm -- 30.53 in1033.9 mb 0.00 in0.0 mm 0.00 in0.0 mm 0.00 in0.0 mm
02:36 AM 30.4°F-0.9°C 25.0°F-3.9°C 82% 0.1 mph SE0.2 kmh SE 0.2 mph0.3 kmh 30.53 in1033.9 mb 0.00 in0.0 mm 0.00 in0.0 mm 0.00 in0.0 mm
02:35 AM 30.4°F-0.9°C 25.0°F-3.9°C 81% 1.0 mph SE1.6 kmh SE 1.5 mph2.4 kmh 30.53 in1033.9 mb 0.00 in0.0 mm 0.00 in0.0 mm 0.00 in0.0 mm
02:34 AM 30.4°F-0.9°C 25.0°F-3.9°C 81% Calm Calm -- 30.53 in1033.9 mb 0.00 in0.0 mm 0.00 in0.0 mm 0.00 in0.0 mm
02:33 AM 30.4°F-0.9°C 25.0°F-3.9°C 82% 0.8 mph SE1.3 kmh SE 1.3 mph2.1 kmh 30.53 in1033.9 mb 0.00 in0.0 mm 0.00 in0.0 mm 0.00 in0.0 mm
02:32 AM 30.2°F-1.0°C 25.0°F-3.9°C 82% 0.3 mph SE0.5 kmh SE 0.4 mph0.6 kmh 30.53 in1033.9 mb 0.00 in0.0 mm 0.00 in0.0 mm 0.00 in0.0 mm
02:31 AM 30.2°F-1.0°C 25.0°F-3.9°C 82% 3.7 mph SE6.0 kmh SE 5.6 mph9.0 kmh 30.53 in1033.9 mb 0.00 in0.0 mm 0.00 in0.0 mm 0.00 in0.0 mm
02:30 AM 30.4°F-0.9°C 25.0°F-3.9°C 82% 5.0 mph SE8.0 kmh SE 7.5 mph12.1 kmh 30.53 in1033.9 mb 0.00 in0.0 mm 0.00 in0.0 mm 0.00 in0.0 mm
02:29 AM 30.4°F-0.9°C 25.0°F-3.9°C 81% 3.9 mph SE6.3 kmh SE 5.9 mph9.5 kmh 30.53 in1033.9 mb 0.00 in0.0 mm 0.00 in0.0 mm 0.00 in0.0 mm
02:28 AM 30.4°F-0.9°C 25.0°F-3.9°C 81% 0.2 mph SE0.3 kmh SE 0.3 mph0.5 kmh 30.53 in1033.9 mb 0.00 in0.0 mm 0.00 in0.0 mm 0.00 in0.0 mm
02:27 AM 30.4°F-0.9°C 25.0°F-3.9°C 81% Calm Calm -- 30.53 in1033.9 mb 0.00 in0.0 mm 0.00 in0.0 mm 0.00 in0.0 mm
02:26 AM 30.6°F-0.8°C 25.0°F-3.9°C 81% 0.6 mph SE1.0 kmh SE 0.9 mph1.4 kmh 30.53 in1033.9 mb 0.00 in0.0 mm 0.00 in0.0 mm 0.00 in0.0 mm
02:25 AM 30.6°F-0.8°C 25.0°F-3.9°C 81% 1.2 mph SE1.9 kmh SE 1.7 mph2.7 kmh 30.53 in1033.9 mb 0.00 in0.0 mm 0.00 in0.0 mm 0.00 in0.0 mm
02:24 AM 30.6°F-0.8°C 25.0°F-3.9°C 80% 1.1 mph ENE1.8 kmh ENE 1.8 mph2.9 kmh 30.53 in1033.9 mb 0.00 in0.0 mm 0.00 in0.0 mm 0.00 in0.0 mm
02:23 AM 30.6°F-0.8°C 25.0°F-3.9°C 81% 1.4 mph 2.3 kmh 2.2 mph3.5 kmh 30.53 in1033.9 mb 0.00 in0.0 mm 0.00 in0.0 mm 0.00 in0.0 mm
02:22 AM 30.6°F-0.8°C 25.0°F-3.9°C 81% 1.3 mph 2.1 kmh 2.0 mph3.2 kmh 30.53 in1033.9 mb 0.00 in0.0 mm 0.00 in0.0 mm 0.00 in0.0 mm
02:21 AM 30.6°F-0.8°C 25.0°F-3.9°C 81% 1.3 mph NE2.1 kmh NE 2.1 mph3.4 kmh 30.53 in1033.9 mb 0.00 in0.0 mm 0.00 in0.0 mm 0.00 in0.0 mm
02:20 AM 30.4°F-0.9°C 25.0°F-3.9°C 81% 0.7 mph S1.1 kmh S 1.0 mph1.6 kmh 30.53 in1033.9 mb 0.00 in0.0 mm 0.00 in0.0 mm 0.00 in0.0 mm
02:19 AM 30.4°F-0.9°C 25.0°F-3.9°C 81% 3.6 mph S5.8 kmh S 5.5 mph8.9 kmh 30.53 in1033.9 mb 0.00 in0.0 mm 0.00 in0.0 mm 0.00 in0.0 mm
02:18 AM 30.6°F-0.8°C 26.0°F-3.3°C 82% 4.9 mph S7.9 kmh S 7.3 mph11.7 kmh 30.53 in1033.9 mb 0.00 in0.0 mm 0.00 in0.0 mm 0.00 in0.0 mm
02:17 AM 30.6°F-0.8°C 26.0°F-3.3°C 82% 5.1 mph S8.2 kmh S 7.7 mph12.4 kmh 30.53 in1033.9 mb 0.00 in0.0 mm 0.00 in0.0 mm 0.00 in0.0 mm
02:16 AM 30.4°F-0.9°C 25.0°F-3.9°C 81% 4.2 mph S6.8 kmh S 6.4 mph10.3 kmh 30.53 in1033.9 mb 0.00 in0.0 mm 0.00 in0.0 mm 0.00 in0.0 mm
02:15 AM 30.4°F-0.9°C 25.0°F-3.9°C 81% 0.2 mph S0.3 kmh S 0.3 mph0.5 kmh 30.53 in1033.9 mb 0.00 in0.0 mm 0.00 in0.0 mm 0.00 in0.0 mm
02:14 AM 30.2°F-1.0°C 25.0°F-3.9°C 81% 0.5 mph S0.8 kmh S 0.8 mph1.3 kmh 30.53 in1033.9 mb 0.00 in0.0 mm 0.00 in0.0 mm 0.00 in0.0 mm
02:13 AM 30.2°F-1.0°C 25.0°F-3.9°C 81% 0.3 mph S0.5 kmh S 0.5 mph0.8 kmh 30.53 in1033.9 mb 0.00 in0.0 mm 0.00 in0.0 mm 0.00 in0.0 mm
02:12 AM 30.2°F-1.0°C 25.0°F-3.9°C 81% 2.2 mph S3.5 kmh S 3.3 mph5.3 kmh 30.53 in1033.9 mb 0.00 in0.0 mm 0.00 in0.0 mm 0.00 in0.0 mm
02:11 AM 30.2°F-1.0°C 25.0°F-3.9°C 81% 3.3 mph S5.3 kmh S 4.9 mph7.9 kmh 30.53 in1033.9 mb 0.00 in0.0 mm 0.00 in0.0 mm 0.00 in0.0 mm
02:10 AM 30.2°F-1.0°C 25.0°F-3.9°C 82% 4.6 mph S7.4 kmh S 6.8 mph10.9 kmh 30.53 in1033.9 mb 0.00 in0.0 mm 0.00 in0.0 mm 0.00 in0.0 mm
02:09 AM 30.2°F-1.0°C 25.0°F-3.9°C 81% 4.5 mph S7.2 kmh S 6.7 mph10.8 kmh 30.53 in1033.9 mb 0.00 in0.0 mm 0.00 in0.0 mm 0.00 in0.0 mm
02:08 AM 30.0°F-1.1°C 25.0°F-3.9°C 82% 4.4 mph S7.1 kmh S 6.6 mph10.6 kmh 30.53 in1033.9 mb 0.00 in0.0 mm 0.00 in0.0 mm 0.00 in0.0 mm
02:07 AM 30.0°F-1.1°C 25.0°F-3.9°C 82% 4.5 mph S7.2 kmh S 6.7 mph10.8 kmh 30.53 in1033.9 mb 0.00 in0.0 mm 0.00 in0.0 mm 0.00 in0.0 mm
02:06 AM 30.0°F-1.1°C 25.0°F-3.9°C 82% 4.1 mph S6.6 kmh S 6.0 mph9.7 kmh 30.53 in1033.9 mb 0.00 in0.0 mm 0.00 in0.0 mm 0.00 in0.0 mm
02:05 AM 30.2°F-1.0°C 25.0°F-3.9°C 82% 4.6 mph S7.4 kmh S 6.9 mph11.1 kmh 30.53 in1033.9 mb 0.00 in0.0 mm 0.00 in0.0 mm 0.00 in0.0 mm
02:04 AM 30.2°F-1.0°C 25.0°F-3.9°C 81% 3.8 mph S6.1 kmh S 5.7 mph9.2 kmh 30.53 in1033.9 mb 0.00 in0.0 mm 0.00 in0.0 mm 0.00 in0.0 mm
02:03 AM 30.4°F-0.9°C 25.0°F-3.9°C 81% 3.4 mph S5.5 kmh S 5.1 mph8.2 kmh 30.54 in1034.2 mb 0.00 in0.0 mm 0.00 in0.0 mm 0.00 in0.0 mm
02:02 AM 30.2°F-1.0°C 25.0°F-3.9°C 81% 2.8 mph S4.5 kmh S 4.3 mph6.9 kmh 30.54 in1034.2 mb 0.00 in0.0 mm 0.00 in0.0 mm 0.00 in0.0 mm
02:01 AM 30.4°F-0.9°C 25.0°F-3.9°C 81% 2.8 mph S4.5 kmh S 4.2 mph6.8 kmh 30.54 in1034.2 mb 0.00 in0.0 mm 0.00 in0.0 mm 0.00 in0.0 mm
02:00 AM 30.4°F-0.9°C 25.0°F-3.9°C 81% 3.2 mph S5.1 kmh S 4.8 mph7.7 kmh 30.54 in1034.2 mb 0.00 in0.0 mm 0.00 in0.0 mm 0.00 in0.0 mm
01:59 AM 30.0°F-1.1°C 25.0°F-3.9°C 81% 2.5 mph SW4.0 kmh SW 3.8 mph6.1 kmh 30.54 in1034.2 mb 0.00 in0.0 mm 0.00 in0.0 mm 0.00 in0.0 mm
01:58 AM 30.0°F-1.1°C 25.0°F-3.9°C 82% 2.0 mph S3.2 kmh S 3.0 mph4.8 kmh 30.54 in1034.2 mb 0.00 in0.0 mm 0.00 in0.0 mm 0.00 in0.0 mm
01:57 AM 29.8°F-1.2°C 25.0°F-3.9°C 82% 4.6 mph S7.4 kmh S 6.9 mph11.1 kmh 30.54 in1034.2 mb 0.00 in0.0 mm 0.00 in0.0 mm 0.00 in0.0 mm
01:56 AM 29.8°F-1.2°C 25.0°F-3.9°C 82% 2.8 mph S4.5 kmh S 4.3 mph6.9 kmh 30.54 in1034.2 mb 0.00 in0.0 mm 0.00 in0.0 mm 0.00 in0.0 mm
01:55 AM 29.8°F-1.2°C 25.0°F-3.9°C 83% 1.7 mph S2.7 kmh S 2.5 mph4.0 kmh 30.54 in1034.2 mb 0.00 in0.0 mm 0.00 in0.0 mm 0.00 in0.0 mm
01:54 AM 29.8°F-1.2°C 25.0°F-3.9°C 83% 3.9 mph S6.3 kmh S 5.9 mph9.5 kmh 30.54 in1034.2 mb 0.00 in0.0 mm 0.00 in0.0 mm 0.00 in0.0 mm
01:53 AM 29.8°F-1.2°C 25.0°F-3.9°C 83% 2.3 mph S3.7 kmh S 3.5 mph5.6 kmh 30.54 in1034.2 mb 0.00 in0.0 mm 0.00 in0.0 mm 0.00 in0.0 mm
01:52 AM 29.7°F-1.3°C 25.0°F-3.9°C 82% 1.6 mph S2.6 kmh S 2.4 mph3.9 kmh 30.54 in1034.2 mb 0.00 in0.0 mm 0.00 in0.0 mm 0.00 in0.0 mm
01:51 AM 29.8°F-1.2°C 25.0°F-3.9°C 82% 2.7 mph S4.3 kmh S 4.0 mph6.4 kmh 30.53 in1033.9 mb 0.00 in0.0 mm 0.00 in0.0 mm 0.00 in0.0 mm
01:50 AM 29.7°F-1.3°C 25.0°F-3.9°C 82% 3.6 mph S5.8 kmh S 5.4 mph8.7 kmh 30.53 in1033.9 mb 0.00 in0.0 mm 0.00 in0.0 mm 0.00 in0.0 mm
01:49 AM 29.7°F-1.3°C 25.0°F-3.9°C 83% 4.0 mph S6.4 kmh S 6.0 mph9.7 kmh 30.53 in1033.9 mb 0.00 in0.0 mm 0.00 in0.0 mm 0.00 in0.0 mm
01:48 AM 29.5°F-1.4°C 25.0°F-3.9°C 82% 4.0 mph S6.4 kmh S 6.0 mph9.7 kmh 30.54 in1034.2 mb 0.00 in0.0 mm 0.00 in0.0 mm 0.00 in0.0 mm
01:47 AM 29.5°F-1.4°C 25.0°F-3.9°C 82% 3.6 mph S5.8 kmh S 5.5 mph8.9 kmh 30.54 in1034.2 mb 0.00 in0.0 mm 0.00 in0.0 mm 0.00 in0.0 mm
01:46 AM 29.5°F-1.4°C 25.0°F-3.9°C 82% 2.2 mph SE3.5 kmh SE 3.4 mph5.5 kmh 30.54 in1034.2 mb 0.00 in0.0 mm 0.00 in0.0 mm 0.00 in0.0 mm
01:45 AM 29.5°F-1.4°C 24.0°F-4.4°C 82% 2.3 mph SSE3.7 kmh SSE 3.4 mph5.5 kmh 30.54 in1034.2 mb 0.00 in0.0 mm 0.00 in0.0 mm 0.00 in0.0 mm
01:44 AM 29.7°F-1.3°C 25.0°F-3.9°C 81% 3.2 mph S5.1 kmh S 4.8 mph7.7 kmh 30.54 in1034.2 mb 0.00 in0.0 mm 0.00 in0.0 mm 0.00 in0.0 mm
01:43 AM 29.7°F-1.3°C 25.0°F-3.9°C 81% 2.4 mph SE3.9 kmh SE 3.7 mph6.0 kmh 30.54 in1034.2 mb 0.00 in0.0 mm 0.00 in0.0 mm 0.00 in0.0 mm
01:42 AM 29.7°F-1.3°C 25.0°F-3.9°C 81% 2.4 mph E3.9 kmh E 3.6 mph5.8 kmh 30.54 in1034.2 mb 0.00 in0.0 mm 0.00 in0.0 mm 0.00 in0.0 mm
01:41 AM 29.7°F-1.3°C 25.0°F-3.9°C 81% 2.3 mph E3.7 kmh E 3.5 mph5.6 kmh 30.54 in1034.2 mb 0.00 in0.0 mm 0.00 in0.0 mm 0.00 in0.0 mm
01:40 AM 29.7°F-1.3°C 25.0°F-3.9°C 81% 0.4 mph E0.6 kmh E 0.5 mph0.8 kmh 30.54 in1034.2 mb 0.00 in0.0 mm 0.00 in0.0 mm 0.00 in0.0 mm
01:39 AM 29.7°F-1.3°C 24.0°F-4.4°C 81% 0.0 mph E0.0 kmh E -- 30.54 in1034.2 mb 0.00 in0.0 mm 0.00 in0.0 mm 0.00 in0.0 mm
01:38 AM 29.7°F-1.3°C 24.0°F-4.4°C 81% 0.9 mph E1.4 kmh E 1.3 mph2.1 kmh 30.54 in1034.2 mb 0.00 in0.0 mm 0.00 in0.0 mm 0.00 in0.0 mm
01:37 AM 29.8°F-1.2°C 24.0°F-4.4°C 81% 0.5 mph E0.8 kmh E 0.7 mph1.1 kmh 30.54 in1034.2 mb 0.00 in0.0 mm 0.00 in0.0 mm 0.00 in0.0 mm
01:36 AM 30.0°F-1.1°C 25.0°F-3.9°C 80% Calm Calm -- 30.54 in1034.2 mb 0.00 in0.0 mm 0.00 in0.0 mm 0.00 in0.0 mm
01:35 AM 30.0°F-1.1°C 25.0°F-3.9°C 81% Calm Calm -- 30.54 in1034.2 mb 0.00 in0.0 mm 0.00 in0.0 mm 0.00 in0.0 mm
01:34 AM 30.0°F-1.1°C 25.0°F-3.9°C 81% Calm Calm -- 30.54 in1034.2 mb 0.00 in0.0 mm 0.00 in0.0 mm 0.00 in0.0 mm
01:33 AM 30.2°F-1.0°C 25.0°F-3.9°C 81% Calm Calm -- 30.54 in1034.2 mb 0.00 in0.0 mm 0.00 in0.0 mm 0.00 in0.0 mm
01:32 AM 30.2°F-1.0°C 25.0°F-3.9°C 80% Calm Calm -- 30.54 in1034.2 mb 0.00 in0.0 mm 0.00 in0.0 mm 0.00 in0.0 mm
01:31 AM 30.0°F-1.1°C 25.0°F-3.9°C 80% 0.0 mph E0.0 kmh E -- 30.54 in1034.2 mb 0.00 in0.0 mm 0.00 in0.0 mm 0.00 in0.0 mm
01:30 AM 30.0°F-1.1°C 25.0°F-3.9°C 80% Calm Calm -- 30.54 in1034.2 mb 0.00 in0.0 mm 0.00 in0.0 mm 0.00 in0.0 mm
01:29 AM 30.0°F-1.1°C 25.0°F-3.9°C 80% 0.8 mph E1.3 kmh E 1.2 mph1.9 kmh 30.54 in1034.2 mb 0.00 in0.0 mm 0.00 in0.0 mm 0.00 in0.0 mm
01:28 AM 30.0°F-1.1°C 25.0°F-3.9°C 80% 1.4 mph NE2.3 kmh NE 2.1 mph3.4 kmh 30.54 in1034.2 mb 0.00 in0.0 mm 0.00 in0.0 mm 0.00 in0.0 mm
01:27 AM 30.2°F-1.0°C 25.0°F-3.9°C 81% 1.7 mph E2.7 kmh E 2.7 mph4.3 kmh 30.54 in1034.2 mb 0.00 in0.0 mm 0.00 in0.0 mm 0.00 in0.0 mm
01:26 AM 30.2°F-1.0°C 25.0°F-3.9°C 80% 1.7 mph SE2.7 kmh SE 2.6 mph4.2 kmh 30.54 in1034.2 mb 0.00 in0.0 mm 0.00 in0.0 mm 0.00 in0.0 mm
01:25 AM 30.4°F-0.9°C 25.0°F-3.9°C 80% 0.4 mph NW0.6 kmh NW 0.6 mph1.0 kmh 30.54 in1034.2 mb 0.00 in0.0 mm 0.00 in0.0 mm 0.00 in0.0 mm
01:24 AM 30.4°F-0.9°C 25.0°F-3.9°C 79% 1.7 mph NW2.7 kmh NW 2.7 mph4.3 kmh 30.54 in1034.2 mb 0.00 in0.0 mm 0.00 in0.0 mm 0.00 in0.0 mm
01:23 AM 30.4°F-0.9°C 25.0°F-3.9°C 79% 0.1 mph SSW0.2 kmh SSW 0.1 mph0.2 kmh 30.54 in1034.2 mb 0.00 in0.0 mm 0.00 in0.0 mm 0.00 in0.0 mm
01:22 AM 30.4°F-0.9°C 25.0°F-3.9°C 79% Calm Calm -- 30.54 in1034.2 mb 0.00 in0.0 mm 0.00 in0.0 mm 0.00 in0.0 mm
01:21 AM 30.4°F-0.9°C 25.0°F-3.9°C 79% Calm Calm -- 30.54 in1034.2 mb 0.00 in0.0 mm 0.00 in0.0 mm 0.00 in0.0 mm
01:20 AM 30.4°F-0.9°C 25.0°F-3.9°C 79% Calm Calm -- 30.54 in1034.2 mb 0.00 in0.0 mm 0.00 in0.0 mm 0.00 in0.0 mm
01:19 AM 30.4°F-0.9°C 25.0°F-3.9°C 79% Calm Calm -- 30.54 in1034.2 mb 0.00 in0.0 mm 0.00 in0.0 mm 0.00 in0.0 mm
01:18 AM 30.6°F-0.8°C 25.0°F-3.9°C 79% Calm Calm -- 30.54 in1034.2 mb 0.00 in0.0 mm 0.00 in0.0 mm 0.00 in0.0 mm
01:17 AM 30.6°F-0.8°C 25.0°F-3.9°C 79% Calm Calm -- 30.54 in1034.2 mb 0.00 in0.0 mm 0.00 in0.0 mm 0.00 in0.0 mm
01:16 AM 30.6°F-0.8°C 25.0°F-3.9°C 79% 0.3 mph S0.5 kmh S 0.3 mph0.5 kmh 30.54 in1034.2 mb 0.00 in0.0 mm 0.00 in0.0 mm 0.00 in0.0 mm
01:15 AM 30.6°F-0.8°C 25.0°F-3.9°C 79% 0.0 mph S0.0 kmh S -- 30.54 in1034.2 mb 0.00 in0.0 mm 0.00 in0.0 mm 0.00 in0.0 mm
01:14 AM 30.4°F-0.9°C 25.0°F-3.9°C 79% 1.0 mph S1.6 kmh S 1.5 mph2.4 kmh 30.54 in1034.2 mb 0.00 in0.0 mm 0.00 in0.0 mm 0.00 in0.0 mm
01:13 AM 30.4°F-0.9°C 25.0°F-3.9°C 79% 0.8 mph S1.3 kmh S 1.2 mph1.9 kmh 30.54 in1034.2 mb 0.00 in0.0 mm 0.00 in0.0 mm 0.00 in0.0 mm
01:12 AM 30.4°F-0.9°C 25.0°F-3.9°C 79% Calm Calm -- 30.54 in1034.2 mb 0.00 in0.0 mm 0.00 in0.0 mm 0.00 in0.0 mm
01:11 AM 30.2°F-1.0°C 24.0°F-4.4°C 79% Calm Calm -- 30.54 in1034.2 mb 0.00 in0.0 mm 0.00 in0.0 mm 0.00 in0.0 mm
01:10 AM 30.4°F-0.9°C 25.0°F-3.9°C 80% Calm Calm -- 30.54 in1034.2 mb 0.00 in0.0 mm 0.00 in0.0 mm 0.00 in0.0 mm
01:09 AM 30.2°F-1.0°C 25.0°F-3.9°C 80% Calm Calm -- 30.54 in1034.2 mb 0.00 in0.0 mm 0.00 in0.0 mm 0.00 in0.0 mm
01:08 AM 30.2°F-1.0°C 25.0°F-3.9°C 80% 0.2 mph S0.3 kmh S 0.3 mph0.5 kmh 30.54 in1034.2 mb 0.00 in0.0 mm 0.00 in0.0 mm 0.00 in0.0 mm
01:07 AM 30.4°F-0.9°C 25.0°F-3.9°C 80% 1.4 mph S2.3 kmh S 2.1 mph3.4 kmh 30.54 in1034.2 mb 0.00 in0.0 mm 0.00 in0.0 mm 0.00 in0.0 mm
01:06 AM 30.4°F-0.9°C 25.0°F-3.9°C 80% 1.9 mph S3.1 kmh S 2.8 mph4.5 kmh 30.54 in1034.2 mb 0.00 in0.0 mm 0.00 in0.0 mm 0.00 in0.0 mm
01:05 AM 30.4°F-0.9°C 25.0°F-3.9°C 80% 2.5 mph S4.0 kmh S 3.7 mph6.0 kmh 30.54 in1034.2 mb 0.00 in0.0 mm 0.00 in0.0 mm 0.00 in0.0 mm
01:04 AM 30.2°F-1.0°C 25.0°F-3.9°C 80% 2.0 mph S3.2 kmh S 3.2 mph5.1 kmh 30.54 in1034.2 mb 0.00 in0.0 mm 0.00 in0.0 mm 0.00 in0.0 mm
01:03 AM 30.4°F-0.9°C 25.0°F-3.9°C 80% 1.2 mph S1.9 kmh S 1.8 mph2.9 kmh 30.54 in1034.2 mb 0.00 in0.0 mm 0.00 in0.0 mm 0.00 in0.0 mm
01:02 AM 30.4°F-0.9°C 25.0°F-3.9°C 80% 1.9 mph S3.1 kmh S 2.9 mph4.7 kmh 30.54 in1034.2 mb 0.00 in0.0 mm 0.00 in0.0 mm 0.00 in0.0 mm
01:01 AM 30.4°F-0.9°C 25.0°F-3.9°C 80% 2.3 mph S3.7 kmh S 3.5 mph5.6 kmh 30.54 in1034.2 mb 0.00 in0.0 mm 0.00 in0.0 mm 0.00 in0.0 mm
01:00 AM 30.4°F-0.9°C 25.0°F-3.9°C 79% 1.8 mph S2.9 kmh S 2.7 mph4.3 kmh 30.54 in1034.2 mb 0.00 in0.0 mm 0.00 in0.0 mm 0.00 in0.0 mm
12:59 AM 30.4°F-0.9°C 25.0°F-3.9°C 79% 0.2 mph S0.3 kmh S 0.2 mph0.3 kmh 30.54 in1034.2 mb 0.00 in0.0 mm 0.00 in0.0 mm 0.00 in0.0 mm
12:58 AM 30.6°F-0.8°C 25.0°F-3.9°C 79% 0.9 mph S1.4 kmh S 1.4 mph2.3 kmh 30.54 in1034.2 mb 0.00 in0.0 mm 0.00 in0.0 mm 0.00 in0.0 mm
12:57 AM 30.6°F-0.8°C 25.0°F-3.9°C 79% 0.1 mph S0.2 kmh S 0.2 mph0.3 kmh 30.54 in1034.2 mb 0.00 in0.0 mm 0.00 in0.0 mm 0.00 in0.0 mm
12:56 AM 30.6°F-0.8°C 25.0°F-3.9°C 79% Calm Calm -- 30.54 in1034.2 mb 0.00 in0.0 mm 0.00 in0.0 mm 0.00 in0.0 mm
12:55 AM 30.6°F-0.8°C 25.0°F-3.9°C 79% Calm Calm -- 30.54 in1034.2 mb 0.00 in0.0 mm 0.00 in0.0 mm 0.00 in0.0 mm
12:54 AM 30.6°F-0.8°C 24.0°F-4.4°C 78% 0.3 mph S0.5 kmh S 0.5 mph0.8 kmh 30.54 in1034.2 mb 0.00 in0.0 mm 0.00 in0.0 mm 0.00 in0.0 mm
12:53 AM 30.7°F-0.7°C 25.0°F-3.9°C 78% 0.2 mph S0.3 kmh S 0.2 mph0.3 kmh 30.54 in1034.2 mb 0.00 in0.0 mm 0.00 in0.0 mm 0.00 in0.0 mm
12:52 AM 30.7°F-0.7°C 25.0°F-3.9°C 79% 0.3 mph S0.5 kmh S 0.5 mph0.8 kmh 30.54 in1034.2 mb 0.00 in0.0 mm 0.00 in0.0 mm 0.00 in0.0 mm
12:51 AM 30.7°F-0.7°C 25.0°F-3.9°C 79% Calm Calm -- 30.54 in1034.2 mb 0.00 in0.0 mm 0.00 in0.0 mm 0.00 in0.0 mm
12:50 AM 30.7°F-0.7°C 25.0°F-3.9°C 78% 0.2 mph S0.3 kmh S 0.3 mph0.5 kmh 30.54 in1034.2 mb 0.00 in0.0 mm 0.00 in0.0 mm 0.00 in0.0 mm
12:49 AM 30.9°F-0.6°C 25.0°F-3.9°C 78% 1.8 mph S2.9 kmh S 2.7 mph4.3 kmh 30.54 in1034.2 mb 0.00 in0.0 mm 0.00 in0.0 mm 0.00 in0.0 mm
12:48 AM 30.9°F-0.6°C 25.0°F-3.9°C 78% 0.3 mph S0.5 kmh S 0.4 mph0.6 kmh 30.54 in1034.2 mb 0.00 in0.0 mm 0.00 in0.0 mm 0.00 in0.0 mm
12:47 AM 31.1°F-0.5°C 25.0°F-3.9°C 78% Calm Calm -- 30.54 in1034.2 mb 0.00 in0.0 mm 0.00 in0.0 mm 0.00 in0.0 mm
12:46 AM 31.1°F-0.5°C 25.0°F-3.9°C 78% Calm Calm -- 30.54 in1034.2 mb 0.00 in0.0 mm 0.00 in0.0 mm 0.00 in0.0 mm
12:45 AM 31.1°F-0.5°C 25.0°F-3.9°C 78% Calm Calm -- 30.54 in1034.2 mb 0.00 in0.0 mm 0.00 in0.0 mm 0.00 in0.0 mm
12:44 AM 31.1°F-0.5°C 25.0°F-3.9°C 77% 0.2 mph S0.3 kmh S 0.3 mph0.5 kmh 30.54 in1034.2 mb 0.00 in0.0 mm 0.00 in0.0 mm 0.00 in0.0 mm
12:43 AM 31.3°F-0.4°C 25.0°F-3.9°C 77% 1.1 mph S1.8 kmh S 1.6 mph2.6 kmh 30.54 in1034.2 mb 0.00 in0.0 mm 0.00 in0.0 mm 0.00 in0.0 mm
12:42 AM 31.3°F-0.4°C 25.0°F-3.9°C 76% 0.5 mph S0.8 kmh S 0.7 mph1.1 kmh 30.54 in1034.2 mb 0.00 in0.0 mm 0.00 in0.0 mm 0.00 in0.0 mm
12:41 AM 31.5°F-0.3°C 25.0°F-3.9°C 76% 0.3 mph S0.5 kmh S 0.4 mph0.6 kmh 30.54 in1034.2 mb 0.00 in0.0 mm 0.00 in0.0 mm 0.00 in0.0 mm
12:40 AM 31.5°F-0.3°C 25.0°F-3.9°C 76% 1.6 mph S2.6 kmh S 2.4 mph3.9 kmh 30.54 in1034.2 mb 0.00 in0.0 mm 0.00 in0.0 mm 0.00 in0.0 mm
12:39 AM 31.5°F-0.3°C 25.0°F-3.9°C 76% 2.7 mph S4.3 kmh S 4.0 mph6.4 kmh 30.54 in1034.2 mb 0.00 in0.0 mm 0.00 in0.0 mm 0.00 in0.0 mm
12:38 AM 31.5°F-0.3°C 25.0°F-3.9°C 77% 1.4 mph S2.3 kmh S 2.1 mph3.4 kmh 30.54 in1034.2 mb 0.00 in0.0 mm 0.00 in0.0 mm 0.00 in0.0 mm
12:37 AM 31.5°F-0.3°C 25.0°F-3.9°C 76% Calm Calm -- 30.54 in1034.2 mb 0.00 in0.0 mm 0.00 in0.0 mm 0.00 in0.0 mm
12:36 AM 31.6°F-0.2°C 25.0°F-3.9°C 77% 0.3 mph S0.5 kmh S 0.5 mph0.8 kmh 30.54 in1034.2 mb 0.00 in0.0 mm 0.00 in0.0 mm 0.00 in0.0 mm
12:35 AM 31.6°F-0.2°C 25.0°F-3.9°C 77% 1.7 mph S2.7 kmh S 2.5 mph4.0 kmh 30.54 in1034.2 mb 0.00 in0.0 mm 0.00 in0.0 mm 0.00 in0.0 mm
12:34 AM 31.8°F-0.1°C 25.0°F-3.9°C 77% 2.8 mph S4.5 kmh S 4.2 mph6.8 kmh 30.54 in1034.2 mb 0.00 in0.0 mm 0.00 in0.0 mm 0.00 in0.0 mm
12:33 AM 31.6°F-0.2°C 25.0°F-3.9°C 76% 0.7 mph WSW1.1 kmh WSW 1.1 mph1.8 kmh 30.54 in1034.2 mb 0.00 in0.0 mm 0.00 in0.0 mm 0.00 in0.0 mm
12:32 AM 31.8°F-0.1°C 25.0°F-3.9°C 76% 1.1 mph W1.8 kmh W 1.7 mph2.7 kmh 30.54 in1034.2 mb 0.00 in0.0 mm 0.00 in0.0 mm 0.00 in0.0 mm
12:31 AM 31.6°F-0.2°C 25.0°F-3.9°C 76% Calm Calm -- 30.54 in1034.2 mb 0.00 in0.0 mm 0.00 in0.0 mm 0.00 in0.0 mm
12:30 AM 31.6°F-0.2°C 25.0°F-3.9°C 76% 0.2 mph S0.3 kmh S 0.2 mph0.3 kmh 30.54 in1034.2 mb 0.00 in0.0 mm 0.00 in0.0 mm 0.00 in0.0 mm
12:29 AM 31.8°F-0.1°C 25.0°F-3.9°C 76% 0.1 mph S0.2 kmh S 0.1 mph0.2 kmh 30.54 in1034.2 mb 0.00 in0.0 mm 0.00 in0.0 mm 0.00 in0.0 mm
12:28 AM 31.6°F-0.2°C 25.0°F-3.9°C 76% 2.4 mph S3.9 kmh S 3.6 mph5.8 kmh 30.54 in1034.2 mb 0.00 in0.0 mm 0.00 in0.0 mm 0.00 in0.0 mm
12:27 AM 31.8°F-0.1°C 25.0°F-3.9°C 75% 3.8 mph S6.1 kmh S 5.6 mph9.0 kmh 30.54 in1034.2 mb 0.00 in0.0 mm 0.00 in0.0 mm 0.00 in0.0 mm
12:26 AM 31.8°F-0.1°C 25.0°F-3.9°C 75% 2.3 mph SSE3.7 kmh SSE 3.5 mph5.6 kmh 30.54 in1034.2 mb 0.00 in0.0 mm 0.00 in0.0 mm 0.00 in0.0 mm
12:25 AM 31.8°F-0.1°C 25.0°F-3.9°C 75% 0.8 mph S1.3 kmh S 1.2 mph1.9 kmh 30.54 in1034.2 mb 0.00 in0.0 mm 0.00 in0.0 mm 0.00 in0.0 mm
12:24 AM 31.8°F-0.1°C 25.0°F-3.9°C 75% 2.1 mph S3.4 kmh S 3.2 mph5.1 kmh 30.54 in1034.2 mb 0.00 in0.0 mm 0.00 in0.0 mm 0.00 in0.0 mm
12:23 AM 31.8°F-0.1°C 25.0°F-3.9°C 75% 2.8 mph S4.5 kmh S 4.2 mph6.8 kmh 30.53 in1033.9 mb 0.00 in0.0 mm 0.00 in0.0 mm 0.00 in0.0 mm
12:22 AM 31.8°F-0.1°C 25.0°F-3.9°C 75% 0.1 mph SE0.2 kmh SE 0.2 mph0.3 kmh 30.53 in1033.9 mb 0.00 in0.0 mm 0.00 in0.0 mm 0.00 in0.0 mm
12:21 AM 32.0°F0.0°C 25.0°F-3.9°C 75% Calm Calm -- 30.53 in1033.9 mb 0.00 in0.0 mm 0.00 in0.0 mm 0.00 in0.0 mm
12:20 AM 31.8°F-0.1°C 25.0°F-3.9°C 75% 1.7 mph SE2.7 kmh SE 2.5 mph4.0 kmh 30.53 in1033.9 mb 0.00 in0.0 mm 0.00 in0.0 mm 0.00 in0.0 mm
12:19 AM 31.8°F-0.1°C 25.0°F-3.9°C 75% 2.7 mph S4.3 kmh S 4.0 mph6.4 kmh 30.53 in1033.9 mb 0.00 in0.0 mm 0.00 in0.0 mm 0.00 in0.0 mm
12:18 AM 31.8°F-0.1°C 25.0°F-3.9°C 76% 2.4 mph S3.9 kmh S 3.7 mph6.0 kmh 30.54 in1034.2 mb 0.00 in0.0 mm 0.00 in0.0 mm 0.00 in0.0 mm
12:17 AM 31.8°F-0.1°C 25.0°F-3.9°C 75% 2.4 mph S3.9 kmh S 3.6 mph5.8 kmh 30.54 in1034.2 mb 0.00 in0.0 mm 0.00 in0.0 mm 0.00 in0.0 mm
12:16 AM 31.8°F-0.1°C 25.0°F-3.9°C 76% 2.8 mph S4.5 kmh S 4.2 mph6.8 kmh 30.53 in1033.9 mb 0.00 in0.0 mm 0.00 in0.0 mm 0.00 in0.0 mm
12:15 AM 31.8°F-0.1°C 25.0°F-3.9°C 75% 3.6 mph S5.8 kmh S 5.4 mph8.7 kmh 30.53 in1033.9 mb 0.00 in0.0 mm 0.00 in0.0 mm 0.00 in0.0 mm
12:14 AM 31.8°F-0.1°C 25.0°F-3.9°C 75% 3.5 mph S5.6 kmh S 5.2 mph8.4 kmh 30.53 in1033.9 mb 0.00 in0.0 mm 0.00 in0.0 mm 0.00 in0.0 mm
12:13 AM 31.6°F-0.2°C 25.0°F-3.9°C 75% 1.4 mph S2.3 kmh S 2.2 mph3.5 kmh 30.53 in1033.9 mb 0.00 in0.0 mm 0.00 in0.0 mm 0.00 in0.0 mm
12:12 AM 31.8°F-0.1°C 25.0°F-3.9°C 75% 2.7 mph S4.3 kmh S 4.1 mph6.6 kmh 30.53 in1033.9 mb 0.00 in0.0 mm 0.00 in0.0 mm 0.00 in0.0 mm
12:11 AM 31.6°F-0.2°C 25.0°F-3.9°C 75% 3.3 mph S5.3 kmh S 5.0 mph8.0 kmh 30.53 in1033.9 mb 0.00 in0.0 mm 0.00 in0.0 mm 0.00 in0.0 mm
12:10 AM 32.0°F0.0°C 25.0°F-3.9°C 75% 0.1 mph S0.2 kmh S 0.1 mph0.2 kmh 30.53 in1033.9 mb 0.00 in0.0 mm 0.00 in0.0 mm 0.00 in0.0 mm
12:09 AM 31.8°F-0.1°C 25.0°F-3.9°C 75% 1.1 mph S1.8 kmh S 1.6 mph2.6 kmh 30.53 in1033.9 mb 0.00 in0.0 mm 0.00 in0.0 mm 0.00 in0.0 mm
12:08 AM 32.0°F0.0°C 25.0°F-3.9°C 75% 3.3 mph S5.3 kmh S 5.0 mph8.0 kmh 30.53 in1033.9 mb 0.00 in0.0 mm 0.00 in0.0 mm 0.00 in0.0 mm
12:07 AM 32.0°F0.0°C 25.0°F-3.9°C 75% 2.9 mph S4.7 kmh S 4.4 mph7.1 kmh 30.53 in1033.9 mb 0.00 in0.0 mm 0.00 in0.0 mm 0.00 in0.0 mm
12:06 AM 32.2°F0.1°C 25.0°F-3.9°C 75% 3.3 mph S5.3 kmh S 5.1 mph8.2 kmh 30.53 in1033.9 mb 0.00 in0.0 mm 0.00 in0.0 mm 0.00 in0.0 mm
12:05 AM 32.2°F0.1°C 25.0°F-3.9°C 75% 2.6 mph S4.2 kmh S 3.9 mph6.3 kmh 30.53 in1033.9 mb 0.00 in0.0 mm 0.00 in0.0 mm 0.00 in0.0 mm
12:04 AM 32.2°F0.1°C 25.0°F-3.9°C 74% 3.3 mph S5.3 kmh S 4.8 mph7.7 kmh 30.53 in1033.9 mb 0.00 in0.0 mm 0.00 in0.0 mm 0.00 in0.0 mm
12:03 AM 32.4°F0.2°C 25.0°F-3.9°C 74% 2.4 mph S3.9 kmh S 3.6 mph5.8 kmh 30.53 in1033.9 mb 0.00 in0.0 mm 0.00 in0.0 mm 0.00 in0.0 mm
12:02 AM 32.5°F0.3°C 25.0°F-3.9°C 75% 1.5 mph S2.4 kmh S 2.4 mph3.9 kmh 30.54 in1034.2 mb 0.00 in0.0 mm 0.00 in0.0 mm 0.00 in0.0 mm
12:01 AM 32.5°F0.3°C 25.0°F-3.9°C 74% 2.4 mph S3.9 kmh S 3.6 mph5.8 kmh 30.53 in1033.9 mb 0.00 in0.0 mm 0.00 in0.0 mm 0.00 in0.0 mm
12:00 AM 32.7°F0.4°C 25.0°F-3.9°C 74% 1.6 mph S2.6 kmh S 2.5 mph4.0 kmh 30.54 in1034.2 mb 0.00 in0.0 mm 0.00 in0.0 mm 0.00 in0.0 mm